Observation data for Mertzon on 08/07/2020      Previous  Date  Next       Current Mesonet Observations  Soil Data  Daily Summary Page  Observations in Plain Language
KME1 070500Z 16011KT 30/15 A3001 RMK A01 T02950153  RH  042%=      5-min Rain = 0
KME1 070501Z 17007KT 30/15 A3001 RMK A01 T02960153  RH  042%=      5-min Rain = 0
KME1 070502Z 16009KT 30/15 A3001 RMK A01 T02950153  RH  042%=      5-min Rain = 0
KME1 070503Z 16009KT 30/15 A3001 RMK A01 T02950154  RH  042%=      5-min Rain = 0
KME1 070504Z 17010KT 29/15 A3001 RMK A01 T02940153  RH  042%=      5-min Rain = 0
KME1 070505Z 17008KT 29/15 A3001 RMK A01 T02940153  RH  042%=      5-min Rain = 0
KME1 070506Z 16008KT 29/15 A3001 RMK A01 T02940153  RH  042%=      5-min Rain = 0
KME1 070507Z 16007KT 29/15 A3001 RMK A01 T02930153  RH  043%=      5-min Rain = 0
KME1 070508Z 16008KT 29/15 A3001 RMK A01 T02930153  RH  043%=      5-min Rain = 0
KME1 070509Z 16011KT 29/15 A3001 RMK A01 T02930153  RH  043%=      5-min Rain = 0
KME1 070510Z 17009KT 29/15 A3001 RMK A01 T02920152  RH  043%=      5-min Rain = 0
KME1 070511Z 16011KT 29/15 A3001 RMK A01 T02930152  RH  043%=      5-min Rain = 0
KME1 070512Z 17010KT 29/15 A3001 RMK A01 T02920152  RH  042%=      5-min Rain = 0
KME1 070513Z 17008KT 29/15 A3001 RMK A01 T02930152  RH  042%=      5-min Rain = 0
KME1 070514Z 17008KT 29/15 A3001 RMK A01 T02930152  RH  042%=      5-min Rain = 0
KME1 070515Z 16010KT 29/15 A3001 RMK A01 T02920152  RH  042%=      5-min Rain = 0
KME1 070516Z 16009KT 29/15 A3001 RMK A01 T02920151  RH  042%=      5-min Rain = 0
KME1 070517Z 17010KT 29/15 A3001 RMK A01 T02920151  RH  042%=      5-min Rain = 0
KME1 070518Z 17010KT 29/15 A3001 RMK A01 T02920151  RH  042%=      5-min Rain = 0
KME1 070519Z 17010KT 29/15 A3001 RMK A01 T02920151  RH  042%=      5-min Rain = 0
KME1 070520Z 16011KT 29/15 A3001 RMK A01 T02930151  RH  042%=      5-min Rain = 0
KME1 070521Z 17012KT 29/15 A3001 RMK A01 T02920151  RH  042%=      5-min Rain = 0
KME1 070522Z 17010KT 29/15 A3001 RMK A01 T02920150  RH  042%=      5-min Rain = 0
KME1 070523Z 17009KT 29/15 A3002 RMK A01 T02930151  RH  042%=      5-min Rain = 0
KME1 070524Z 16009KT 29/15 A3002 RMK A01 T02920150  RH  042%=      5-min Rain = 0
KME1 070525Z 17009G14KT 29/15 A3002 RMK A01 T02920150  RH  042%=      5-min Rain = 0
KME1 070526Z 17010KT 29/15 A3002 RMK A01 T02910150  RH  042%=      5-min Rain = 0
KME1 070527Z 16010KT 29/15 A3002 RMK A01 T02910150  RH  042%=      5-min Rain = 0
KME1 070528Z 16013KT 29/15 A3002 RMK A01 T02910150  RH  042%=      5-min Rain = 0
KME1 070529Z 16009KT 29/15 A3002 RMK A01 T02910150  RH  042%=      5-min Rain = 0
KME1 070530Z 17008KT 29/15 A3002 RMK A01 T02910150  RH  042%=      5-min Rain = 0
KME1 070531Z 16009KT 29/15 A3002 RMK A01 T02900150  RH  042%=      5-min Rain = 0
KME1 070532Z 16009KT 29/15 A3002 RMK A01 T02900150  RH  042%=      5-min Rain = 0
KME1 070533Z 17009KT 29/15 A3002 RMK A01 T02890149  RH  042%=      5-min Rain = 0
KME1 070534Z 17010KT 29/15 A3001 RMK A01 T02890149  RH  043%=      5-min Rain = 0
KME1 070535Z 17008KT 29/15 A3002 RMK A01 T02890149  RH  042%=      5-min Rain = 0
KME1 070536Z 17008KT 29/15 A3002 RMK A01 T02890149  RH  042%=      5-min Rain = 0
KME1 070537Z 17010KT 29/15 A3001 RMK A01 T02890149  RH  042%=      5-min Rain = 0
KME1 070538Z 17010KT 29/15 A3001 RMK A01 T02890149  RH  043%=      5-min Rain = 0
KME1 070539Z 17010KT 29/15 A3002 RMK A01 T02890149  RH  043%=      5-min Rain = 0
KME1 070540Z 17010KT 29/15 A3002 RMK A01 T02890149  RH  042%=      5-min Rain = 0
KME1 070541Z 17012KT 29/15 A3002 RMK A01 T02890149  RH  042%=      5-min Rain = 0
KME1 070542Z 17010KT 29/15 A3002 RMK A01 T02890149  RH  042%=      5-min Rain = 0
KME1 070543Z 17011KT 29/15 A3002 RMK A01 T02890149  RH  043%=      5-min Rain = 0
KME1 070544Z 17008KT 29/15 A3002 RMK A01 T02890149  RH  042%=      5-min Rain = 0
KME1 070545Z 17008KT 29/15 A3002 RMK A01 T02880149  RH  043%=      5-min Rain = 0
KME1 070546Z 17009KT 29/15 A3002 RMK A01 T02870148  RH  043%=      5-min Rain = 0
KME1 070547Z 17010KT 29/15 A3002 RMK A01 T02870148  RH  043%=      5-min Rain = 0
KME1 070548Z 17011KT 29/15 A3002 RMK A01 T02870148  RH  043%=      5-min Rain = 0
KME1 070549Z 17011KT 29/15 A3001 RMK A01 T02870149  RH  043%=      5-min Rain = 0
KME1 070550Z 17010KT 29/15 A3002 RMK A01 T02880149  RH  043%=      5-min Rain = 0
KME1 070551Z 17009KT 29/15 A3002 RMK A01 T02870149  RH  043%=      5-min Rain = 0
KME1 070552Z 17009KT 29/15 A3002 RMK A01 T02870149  RH  043%=      5-min Rain = 0
KME1 070553Z 17009KT 29/15 A3002 RMK A01 T02870149  RH  043%=      5-min Rain = 0
KME1 070554Z 17008KT 29/15 A3002 RMK A01 T02860149  RH  043%=      5-min Rain = 0
KME1 070555Z 17008KT 29/15 A3002 RMK A01 T02850149  RH  043%=      5-min Rain = 0
KME1 070556Z 17008KT 29/15 A3002 RMK A01 T02850149  RH  043%=      5-min Rain = 0
KME1 070557Z 18007KT 28/15 A3002 RMK A01 T02840149  RH  044%=      5-min Rain = 0
KME1 070558Z 17009KT 28/15 A3002 RMK A01 T02840149  RH  044%=      5-min Rain = 0
KME1 070559Z 17010KT 28/15 A3002 RMK A01 T02840149  RH  044%=      5-min Rain = 0
KME1 070600Z 17009KT 28/15 A3002 RMK A01 T02840149  RH  044%=      5-min Rain = 0
KME1 070601Z 17008KT 28/15 A3002 RMK A01 T02840149  RH  044%=      5-min Rain = 0
KME1 070602Z 16009KT 28/15 A3002 RMK A01 T02840149  RH  044%=      5-min Rain = 0
KME1 070603Z 17008KT 28/15 A3002 RMK A01 T02840149  RH  044%=      5-min Rain = 0
KME1 070604Z 17008KT 28/15 A3002 RMK A01 T02830149  RH  044%=      5-min Rain = 0
KME1 070605Z 17008KT 28/15 A3002 RMK A01 T02830149  RH  044%=      5-min Rain = 0
KME1 070606Z 17007KT 28/15 A3002 RMK A01 T02830149  RH  044%=      5-min Rain = 0
KME1 070607Z 17007KT 28/15 A3002 RMK A01 T02820149  RH  044%=      5-min Rain = 0
KME1 070608Z 17007KT 28/15 A3002 RMK A01 T02820149  RH  044%=      5-min Rain = 0
KME1 070609Z 17007KT 28/15 A3002 RMK A01 T02810149  RH  045%=      5-min Rain = 0
KME1 070610Z 17008KT 28/15 A3002 RMK A01 T02810150  RH  045%=      5-min Rain = 0
KME1 070611Z 17009KT 28/15 A3002 RMK A01 T02810149  RH  044%=      5-min Rain = 0
KME1 070612Z 17009KT 28/15 A3002 RMK A01 T02810149  RH  044%=      5-min Rain = 0
KME1 070613Z 17010KT 28/15 A3002 RMK A01 T02810149  RH  044%=      5-min Rain = 0
KME1 070614Z 17010KT 28/15 A3002 RMK A01 T02810149  RH  044%=      5-min Rain = 0
KME1 070615Z 17007KT 28/15 A3002 RMK A01 T02810149  RH  044%=      5-min Rain = 0
KME1 070616Z 17010KT 28/15 A3002 RMK A01 T02820149  RH  044%=      5-min Rain = 0
KME1 070617Z 17008KT 28/15 A3002 RMK A01 T02810148  RH  044%=      5-min Rain = 0
KME1 070618Z 17008KT 28/15 A3002 RMK A01 T02810149  RH  044%=      5-min Rain = 0
KME1 070619Z 17007KT 28/15 A3002 RMK A01 T02810149  RH  044%=      5-min Rain = 0
KME1 070620Z 17008KT 28/15 A3002 RMK A01 T02800148  RH  044%=      5-min Rain = 0
KME1 070621Z 17008KT 28/15 A3002 RMK A01 T02800148  RH  045%=      5-min Rain = 0
KME1 070622Z 17010KT 28/15 A3002 RMK A01 T02800148  RH  045%=      5-min Rain = 0
KME1 070623Z 16010KT 28/15 A3002 RMK A01 T02800148  RH  044%=      5-min Rain = 0
KME1 070624Z 17008KT 28/15 A3002 RMK A01 T02800147  RH  044%=      5-min Rain = 0
KME1 070625Z 17011KT 28/15 A3002 RMK A01 T02800147  RH  044%=      5-min Rain = 0
KME1 070626Z 17008KT 28/15 A3002 RMK A01 T02800147  RH  044%=      5-min Rain = 0
KME1 070627Z 18009KT 28/15 A3002 RMK A01 T02810147  RH  044%=      5-min Rain = 0
KME1 070628Z 17007KT 28/15 A3002 RMK A01 T02800148  RH  044%=      5-min Rain = 0
KME1 070629Z 18007KT 28/15 A3002 RMK A01 T02790147  RH  044%=      5-min Rain = 0
KME1 070630Z 17007KT 28/15 A3002 RMK A01 T02790148  RH  045%=      5-min Rain = 0
KME1 070631Z 17007KT 28/15 A3002 RMK A01 T02790148  RH  045%=      5-min Rain = 0
KME1 070632Z 17009KT 28/15 A3002 RMK A01 T02790147  RH  045%=      5-min Rain = 0
KME1 070633Z 18008KT 28/15 A3002 RMK A01 T02790147  RH  045%=      5-min Rain = 0
KME1 070634Z 17007KT 28/15 A3002 RMK A01 T02780147  RH  045%=      5-min Rain = 0
KME1 070635Z 18007KT 28/15 A3002 RMK A01 T02780147  RH  045%=      5-min Rain = 0
KME1 070636Z 18009KT 28/15 A3002 RMK A01 T02780147  RH  045%=      5-min Rain = 0
KME1 070637Z 17009KT 28/15 A3002 RMK A01 T02770147  RH  045%=      5-min Rain = 0
KME1 070638Z 18008KT 28/15 A3002 RMK A01 T02770147  RH  045%=      5-min Rain = 0
KME1 070639Z 17008KT 28/15 A3002 RMK A01 T02770147  RH  045%=      5-min Rain = 0
KME1 070640Z 18007KT 28/15 A3002 RMK A01 T02770147  RH  045%=      5-min Rain = 0
KME1 070641Z 17006KT 28/15 A3002 RMK A01 T02770148  RH  045%=      5-min Rain = 0
KME1 070642Z 17008KT 28/15 A3002 RMK A01 T02760147  RH  045%=      5-min Rain = 0
KME1 070643Z 17008KT 28/15 A3002 RMK A01 T02750147  RH  046%=      5-min Rain = 0
KME1 070644Z 17009KT 28/15 A3002 RMK A01 T02750147  RH  046%=      5-min Rain = 0
KME1 070645Z 17008KT 28/15 A3002 RMK A01 T02750147  RH  046%=      5-min Rain = 0
KME1 070646Z 17007KT 28/15 A3002 RMK A01 T02750147  RH  046%=      5-min Rain = 0
KME1 070647Z 18007KT 28/15 A3002 RMK A01 T02750147  RH  046%=      5-min Rain = 0
KME1 070648Z 17007KT 27/15 A3002 RMK A01 T02740147  RH  046%=      5-min Rain = 0
KME1 070649Z 17009KT 27/15 A3002 RMK A01 T02740147  RH  046%=      5-min Rain = 0
KME1 070650Z 17008KT 27/15 A3002 RMK A01 T02740147  RH  046%=      5-min Rain = 0
KME1 070651Z 17007KT 27/15 A3002 RMK A01 T02740147  RH  046%=      5-min Rain = 0
KME1 070652Z 17007KT 27/15 A3002 RMK A01 T02730147  RH  046%=      5-min Rain = 0
KME1 070653Z 18008KT 27/15 A3002 RMK A01 T02730147  RH  046%=      5-min Rain = 0
KME1 070654Z 17007KT 27/15 A3002 RMK A01 T02730147  RH  046%=      5-min Rain = 0
KME1 070655Z 17008KT 27/15 A3002 RMK A01 T02720147  RH  046%=      5-min Rain = 0
KME1 070656Z 18007KT 27/15 A3002 RMK A01 T02720147  RH  046%=      5-min Rain = 0
KME1 070657Z 17007KT 27/15 A3002 RMK A01 T02720147  RH  046%=      5-min Rain = 0
KME1 070658Z 18007KT 27/15 A3002 RMK A01 T02720147  RH  046%=      5-min Rain = 0
KME1 070659Z 18008KT 27/15 A3002 RMK A01 T02720147  RH  046%=      5-min Rain = 0
KME1 070700Z 17008KT 27/15 A3002 RMK A01 T02720147  RH  047%=      5-min Rain = 0
KME1 070701Z 17008KT 27/15 A3002 RMK A01 T02710147  RH  047%=      5-min Rain = 0
KME1 070702Z 18008KT 27/15 A3002 RMK A01 T02720147  RH  047%=      5-min Rain = 0
KME1 070703Z 17008KT 27/15 A3002 RMK A01 T02710147  RH  047%=      5-min Rain = 0
KME1 070704Z 17007KT 27/15 A3002 RMK A01 T02710147  RH  047%=      5-min Rain = 0
KME1 070705Z 18008KT 27/15 A3002 RMK A01 T02710147  RH  047%=      5-min Rain = 0
KME1 070706Z 17008KT 27/15 A3002 RMK A01 T02700147  RH  047%=      5-min Rain = 0
KME1 070707Z 18007KT 27/15 A3002 RMK A01 T02700147  RH  047%=      5-min Rain = 0
KME1 070708Z 18008KT 27/15 A3002 RMK A01 T02700147  RH  047%=      5-min Rain = 0
KME1 070709Z 17007KT 27/15 A3002 RMK A01 T02700147  RH  047%=      5-min Rain = 0
KME1 070710Z 17007KT 27/15 A3002 RMK A01 T02700147  RH  047%=      5-min Rain = 0
KME1 070711Z 17008KT 27/15 A3002 RMK A01 T02690147  RH  047%=      5-min Rain = 0
KME1 070712Z 17008KT 27/15 A3002 RMK A01 T02690147  RH  047%=      5-min Rain = 0
KME1 070713Z 17010KT 27/15 A3002 RMK A01 T02690147  RH  047%=      5-min Rain = 0
KME1 070714Z 17007KT 27/15 A3002 RMK A01 T02700147  RH  047%=      5-min Rain = 0
KME1 070715Z 17009KT 27/15 A3002 RMK A01 T02690147  RH  047%=      5-min Rain = 0
KME1 070716Z 18010KT 27/15 A3002 RMK A01 T02700148  RH  047%=      5-min Rain = 0
KME1 070717Z 17009KT 27/15 A3002 RMK A01 T02700148  RH  047%=      5-min Rain = 0
KME1 070718Z 17009KT 27/15 A3002 RMK A01 T02700148  RH  047%=      5-min Rain = 0
KME1 070719Z 17009KT 27/15 A3002 RMK A01 T02700148  RH  047%=      5-min Rain = 0
KME1 070720Z 16009KT 27/15 A3002 RMK A01 T02700148  RH  047%=      5-min Rain = 0
KME1 070721Z 17008KT 27/15 A3002 RMK A01 T02700148  RH  047%=      5-min Rain = 0
KME1 070722Z 17009KT 27/15 A3002 RMK A01 T02690148  RH  047%=      5-min Rain = 0
KME1 070723Z 17009KT 27/15 A3002 RMK A01 T02690148  RH  047%=      5-min Rain = 0
KME1 070724Z 17008KT 27/15 A3002 RMK A01 T02690148  RH  047%=      5-min Rain = 0
KME1 070725Z 17009KT 27/15 A3002 RMK A01 T02690148  RH  048%=      5-min Rain = 0
KME1 070726Z 17008KT 27/15 A3002 RMK A01 T02690148  RH  048%=      5-min Rain = 0
KME1 070727Z 17010KT 27/15 A3002 RMK A01 T02680148  RH  048%=      5-min Rain = 0
KME1 070728Z 17008KT 27/15 A3002 RMK A01 T02680148  RH  048%=      5-min Rain = 0
KME1 070729Z 17008KT 27/15 A3002 RMK A01 T02690148  RH  048%=      5-min Rain = 0
KME1 070730Z 18008KT 27/15 A3002 RMK A01 T02690148  RH  048%=      5-min Rain = 0
KME1 070731Z 17008KT 27/15 A3002 RMK A01 T02680148  RH  048%=      5-min Rain = 0
KME1 070732Z 17009KT 27/15 A3002 RMK A01 T02680149  RH  048%=      5-min Rain = 0
KME1 070733Z 17008KT 27/15 A3002 RMK A01 T02680148  RH  048%=      5-min Rain = 0
KME1 070734Z 18009KT 27/15 A3002 RMK A01 T02680148  RH  048%=      5-min Rain = 0
KME1 070735Z 17007KT 27/15 A3002 RMK A01 T02670148  RH  048%=      5-min Rain = 0
KME1 070736Z 17008KT 27/15 A3002 RMK A01 T02670148  RH  048%=      5-min Rain = 0
KME1 070737Z 17008KT 27/15 A3002 RMK A01 T02670148  RH  048%=      5-min Rain = 0
KME1 070738Z 17006KT 27/15 A3002 RMK A01 T02670148  RH  048%=      5-min Rain = 0
KME1 070739Z 17008KT 27/15 A3002 RMK A01 T02660148  RH  048%=      5-min Rain = 0
KME1 070740Z 16008KT 27/15 A3002 RMK A01 T02660148  RH  048%=      5-min Rain = 0
KME1 070741Z 17009KT 27/15 A3002 RMK A01 T02660148  RH  048%=      5-min Rain = 0
KME1 070742Z 17008KT 27/15 A3002 RMK A01 T02650148  RH  048%=      5-min Rain = 0
KME1 070743Z 17008KT 27/15 A3002 RMK A01 T02650148  RH  048%=      5-min Rain = 0
KME1 070744Z 17009KT 27/15 A3002 RMK A01 T02650148  RH  049%=      5-min Rain = 0
KME1 070745Z 17009KT 27/15 A3002 RMK A01 T02650148  RH  049%=      5-min Rain = 0
KME1 070746Z 17009KT 27/15 A3002 RMK A01 T02650149  RH  049%=      5-min Rain = 0
KME1 070747Z 17009KT 27/15 A3002 RMK A01 T02660149  RH  049%=      5-min Rain = 0
KME1 070748Z 17009KT 27/15 A3002 RMK A01 T02650148  RH  049%=      5-min Rain = 0
KME1 070749Z 16009KT 27/15 A3002 RMK A01 T02660149  RH  049%=      5-min Rain = 0
KME1 070750Z 17007KT 27/15 A3002 RMK A01 T02650148  RH  049%=      5-min Rain = 0
KME1 070751Z 17007KT 27/15 A3002 RMK A01 T02650149  RH  049%=      5-min Rain = 0
KME1 070752Z 17008KT 26/15 A3002 RMK A01 T02640148  RH  049%=      5-min Rain = 0
KME1 070753Z 17007KT 26/15 A3002 RMK A01 T02640149  RH  049%=      5-min Rain = 0
KME1 070754Z 17009KT 26/15 A3002 RMK A01 T02640149  RH  049%=      5-min Rain = 0
KME1 070755Z 17007KT 26/15 A3002 RMK A01 T02640149  RH  049%=      5-min Rain = 0
KME1 070756Z 17008KT 26/15 A3002 RMK A01 T02640149  RH  049%=      5-min Rain = 0
KME1 070757Z 17006KT 26/15 A3002 RMK A01 T02640149  RH  049%=      5-min Rain = 0
KME1 070758Z 17008KT 26/15 A3002 RMK A01 T02630149  RH  049%=      5-min Rain = 0
KME1 070759Z 17009KT 26/15 A3002 RMK A01 T02630149  RH  049%=      5-min Rain = 0
KME1 070800Z 17009KT 26/15 A3002 RMK A01 T02630149  RH  049%=      5-min Rain = 0
KME1 070801Z 17008KT 26/15 A3002 RMK A01 T02630149  RH  049%=      5-min Rain = 0
KME1 070802Z 17008KT 26/15 A3002 RMK A01 T02640149  RH  049%=      5-min Rain = 0
KME1 070803Z 17009KT 26/15 A3002 RMK A01 T02640149  RH  049%=      5-min Rain = 0
KME1 070804Z 18008KT 26/15 A3002 RMK A01 T02630150  RH  049%=      5-min Rain = 0
KME1 070805Z 17009KT 26/15 A3002 RMK A01 T02630150  RH  050%=      5-min Rain = 0
KME1 070806Z 18009KT 26/15 A3002 RMK A01 T02630150  RH  050%=      5-min Rain = 0
KME1 070807Z 18009KT 26/15 A3002 RMK A01 T02630150  RH  050%=      5-min Rain = 0
KME1 070808Z 17011KT 26/15 A3002 RMK A01 T02630150  RH  050%=      5-min Rain = 0
KME1 070809Z 17010KT 26/15 A3002 RMK A01 T02630150  RH  050%=      5-min Rain = 0
KME1 070810Z 17010KT 26/15 A3002 RMK A01 T02630150  RH  050%=      5-min Rain = 0
KME1 070811Z 17011KT 26/15 A3002 RMK A01 T02620150  RH  050%=      5-min Rain = 0
KME1 070812Z 17009KT 26/15 A3001 RMK A01 T02620150  RH  050%=      5-min Rain = 0
KME1 070813Z 16012KT 26/15 A3001 RMK A01 T02620151  RH  050%=      5-min Rain = 0
KME1 070814Z 17011KT 26/15 A3001 RMK A01 T02620151  RH  050%=      5-min Rain = 0
KME1 070815Z 17011KT 26/15 A3001 RMK A01 T02620151  RH  050%=      5-min Rain = 0
KME1 070816Z 17011KT 26/15 A3001 RMK A01 T02620151  RH  051%=      5-min Rain = 0
KME1 070817Z 17011KT 26/15 A3001 RMK A01 T02620151  RH  051%=      5-min Rain = 0
KME1 070818Z 17013KT 26/15 A3001 RMK A01 T02620152  RH  051%=      5-min Rain = 0
KME1 070819Z 17012KT 26/15 A3001 RMK A01 T02620152  RH  051%=      5-min Rain = 0
KME1 070820Z 17009KT 26/15 A3001 RMK A01 T02620152  RH  051%=      5-min Rain = 0
KME1 070821Z 17013KT 26/15 A3001 RMK A01 T02620152  RH  051%=      5-min Rain = 0
KME1 070822Z 17012KT 26/15 A3001 RMK A01 T02610152  RH  051%=      5-min Rain = 0
KME1 070823Z 17012KT 26/15 A3001 RMK A01 T02610153  RH  051%=      5-min Rain = 0
KME1 070824Z 17013KT 26/15 A3001 RMK A01 T02620153  RH  051%=      5-min Rain = 0
KME1 070825Z 17010KT 26/15 A3001 RMK A01 T02620153  RH  051%=      5-min Rain = 0
KME1 070826Z 17012KT 26/15 A3001 RMK A01 T02620153  RH  051%=      5-min Rain = 0
KME1 070827Z 17012KT 26/15 A3001 RMK A01 T02620154  RH  051%=      5-min Rain = 0
KME1 070828Z 17009KT 26/15 A3001 RMK A01 T02620154  RH  051%=      5-min Rain = 0
KME1 070829Z 17009KT 26/15 A3001 RMK A01 T02610154  RH  052%=      5-min Rain = 0
KME1 070830Z 17008KT 26/15 A3002 RMK A01 T02600154  RH  052%=      5-min Rain = 0
KME1 070831Z 17011KT 26/15 A3001 RMK A01 T02600154  RH  052%=      5-min Rain = 0
KME1 070832Z 17009KT 26/15 A3002 RMK A01 T02600154  RH  052%=      5-min Rain = 0
KME1 070833Z 17008KT 26/15 A3002 RMK A01 T02600154  RH  052%=      5-min Rain = 0
KME1 070834Z 17010KT 26/15 A3002 RMK A01 T02600154  RH  052%=      5-min Rain = 0
KME1 070835Z 17008KT 26/15 A3002 RMK A01 T02600154  RH  052%=      5-min Rain = 0
KME1 070836Z 18010KT 26/15 A3002 RMK A01 T02590154  RH  052%=      5-min Rain = 0
KME1 070837Z 17007KT 26/16 A3002 RMK A01 T02590155  RH  052%=      5-min Rain = 0
KME1 070838Z 17009KT 26/16 A3002 RMK A01 T02590155  RH  052%=      5-min Rain = 0
KME1 070839Z 17009KT 26/16 A3002 RMK A01 T02600155  RH  052%=      5-min Rain = 0
KME1 070840Z 17008KT 26/16 A3002 RMK A01 T02590155  RH  052%=      5-min Rain = 0
KME1 070841Z 18008KT 26/16 A3002 RMK A01 T02590155  RH  052%=      5-min Rain = 0
KME1 070842Z 17008KT 26/15 A3001 RMK A01 T02580154  RH  053%=      5-min Rain = 0
KME1 070843Z 17009KT 26/15 A3001 RMK A01 T02580154  RH  053%=      5-min Rain = 0
KME1 070844Z 17008KT 26/15 A3001 RMK A01 T02580154  RH  053%=      5-min Rain = 0
KME1 070845Z 17008KT 26/15 A3001 RMK A01 T02580154  RH  053%=      5-min Rain = 0
KME1 070846Z 17008KT 26/15 A3001 RMK A01 T02570154  RH  053%=      5-min Rain = 0
KME1 070847Z 17009KT 26/15 A3001 RMK A01 T02570154  RH  053%=      5-min Rain = 0
KME1 070848Z 17008KT 26/15 A3001 RMK A01 T02570153  RH  053%=      5-min Rain = 0
KME1 070849Z 17009G14KT 26/15 A3001 RMK A01 T02560153  RH  053%=      5-min Rain = 0
KME1 070850Z 17011KT 26/15 A3001 RMK A01 T02560153  RH  053%=      5-min Rain = 0
KME1 070851Z 17008KT 26/15 A3001 RMK A01 T02560153  RH  053%=      5-min Rain = 0
KME1 070852Z 17011KT 26/15 A3001 RMK A01 T02560153  RH  053%=      5-min Rain = 0
KME1 070853Z 17008G13KT 26/15 A3001 RMK A01 T02560153  RH  053%=      5-min Rain = 0
KME1 070854Z 17011KT 26/15 A3001 RMK A01 T02560153  RH  053%=      5-min Rain = 0
KME1 070855Z 17012KT 26/15 A3001 RMK A01 T02560153  RH  053%=      5-min Rain = 0
KME1 070856Z 18010KT 26/15 A3001 RMK A01 T02560153  RH  053%=      5-min Rain = 0
KME1 070857Z 17011KT 26/15 A3001 RMK A01 T02560153  RH  053%=      5-min Rain = 0
KME1 070858Z 17011KT 26/15 A3001 RMK A01 T02560153  RH  053%=      5-min Rain = 0
KME1 070859Z 17011KT 26/15 A3001 RMK A01 T02560153  RH  053%=      5-min Rain = 0
KME1 070900Z 17012KT 26/15 A3001 RMK A01 T02560153  RH  053%=      5-min Rain = 0
KME1 070901Z 18011KT 26/15 A3001 RMK A01 T02560153  RH  053%=      5-min Rain = 0
KME1 070902Z 17012KT 26/15 A3001 RMK A01 T02560154  RH  053%=      5-min Rain = 0
KME1 070903Z 17013KT 26/15 A3001 RMK A01 T02560154  RH  053%=      5-min Rain = 0
KME1 070904Z 18016KT 26/16 A30 RMK A01 T02560155  RH  054%=      5-min Rain = 0
KME1 070905Z 17012KT 26/16 A3001 RMK A01 T02570156  RH  054%=      5-min Rain = 0
KME1 070906Z 17012KT 26/16 A3001 RMK A01 T02570157  RH  054%=      5-min Rain = 0
KME1 070907Z 17011G17KT 26/16 A3001 RMK A01 T02560158  RH  054%=      5-min Rain = 0
KME1 070908Z 17013G18KT 26/16 A3001 RMK A01 T02560159  RH  055%=      5-min Rain = 0
KME1 070909Z 17012KT 26/16 A3001 RMK A01 T02560161  RH  056%=      5-min Rain = 0
KME1 070910Z 17012KT 26/16 A3001 RMK A01 T02560161  RH  056%=      5-min Rain = 0
KME1 070911Z 17010KT 26/16 A3001 RMK A01 T02560162  RH  056%=      5-min Rain = 0
KME1 070912Z 18011KT 26/16 A3001 RMK A01 T02560163  RH  056%=      5-min Rain = 0
KME1 070913Z 17011KT 26/16 A3001 RMK A01 T02560163  RH  057%=      5-min Rain = 0
KME1 070914Z 18011KT 26/16 A3001 RMK A01 T02550164  RH  057%=      5-min Rain = 0
KME1 070915Z 17012G19KT 26/17 A3001 RMK A01 T02550165  RH  057%=      5-min Rain = 0
KME1 070916Z 17015KT 26/17 A3001 RMK A01 T02550166  RH  058%=      5-min Rain = 0
KME1 070917Z 18014KT 26/17 A3001 RMK A01 T02550167  RH  058%=      5-min Rain = 0
KME1 070918Z 17011KT 26/17 A3001 RMK A01 T02560167  RH  058%=      5-min Rain = 0
KME1 070919Z 17013KT 26/17 A3001 RMK A01 T02560168  RH  058%=      5-min Rain = 0
KME1 070920Z 17010KT 26/17 A3001 RMK A01 T02560168  RH  058%=      5-min Rain = 0
KME1 070921Z 17013KT 26/17 A3001 RMK A01 T02560169  RH  059%=      5-min Rain = 0
KME1 070922Z 17013KT 26/17 A3002 RMK A01 T02550170  RH  059%=      5-min Rain = 0
KME1 070923Z 17011KT 26/17 A3002 RMK A01 T02550170  RH  059%=      5-min Rain = 0
KME1 070924Z 18010KT 26/17 A3002 RMK A01 T02550170  RH  059%=      5-min Rain = 0
KME1 070925Z 18011KT 26/17 A3002 RMK A01 T02550171  RH  060%=      5-min Rain = 0
KME1 070926Z 18010KT 25/17 A3002 RMK A01 T02540171  RH  060%=      5-min Rain = 0
KME1 070927Z 17011KT 25/17 A3001 RMK A01 T02540171  RH  060%=      5-min Rain = 0
KME1 070928Z 18013KT 25/17 A3001 RMK A01 T02540172  RH  060%=      5-min Rain = 0
KME1 070929Z 18012KT 25/17 A3001 RMK A01 T02540172  RH  060%=      5-min Rain = 0
KME1 070930Z 18010KT 25/17 A3001 RMK A01 T02540172  RH  060%=      5-min Rain = 0
KME1 070931Z 17011G17KT 25/17 A3001 RMK A01 T02540173  RH  061%=      5-min Rain = 0
KME1 070932Z 18013KT 25/17 A3001 RMK A01 T02530173  RH  061%=      5-min Rain = 0
KME1 070933Z 18011KT 25/17 A3001 RMK A01 T02530173  RH  061%=      5-min Rain = 0
KME1 070934Z 18012KT 25/17 A3001 RMK A01 T02530173  RH  061%=      5-min Rain = 0
KME1 070935Z 18012KT 25/17 A3001 RMK A01 T02530174  RH  062%=      5-min Rain = 0
KME1 070936Z 18011KT 25/17 A3001 RMK A01 T02530174  RH  062%=      5-min Rain = 0
KME1 070937Z 18012KT 25/18 A3001 RMK A01 T02530175  RH  062%=      5-min Rain = 0
KME1 070938Z 17012G17KT 25/18 A3001 RMK A01 T02530175  RH  062%=      5-min Rain = 0
KME1 070939Z 18012KT 25/18 A3001 RMK A01 T02530176  RH  062%=      5-min Rain = 0
KME1 070940Z 18013G18KT 25/18 A3001 RMK A01 T02530176  RH  062%=      5-min Rain = 0
KME1 070941Z 17013G18KT 25/18 A3001 RMK A01 T02530177  RH  063%=      5-min Rain = 0
KME1 070942Z 18012KT 25/18 A3001 RMK A01 T02530177  RH  063%=      5-min Rain = 0
KME1 070943Z 18010KT 25/18 A3001 RMK A01 T02530177  RH  063%=      5-min Rain = 0
KME1 070944Z 17013KT 25/18 A3001 RMK A01 T02530177  RH  063%=      5-min Rain = 0
KME1 070945Z 18012KT 25/18 A3001 RMK A01 T02530178  RH  063%=      5-min Rain = 0
KME1 070946Z 17010KT 25/18 A3001 RMK A01 T02530178  RH  063%=      5-min Rain = 0
KME1 070947Z 18010KT 25/18 A3001 RMK A01 T02520178  RH  063%=      5-min Rain = 0
KME1 070948Z 17010KT 25/18 A3001 RMK A01 T02520178  RH  063%=      5-min Rain = 0
KME1 070949Z 18009KT 25/18 A3001 RMK A01 T02520178  RH  064%=      5-min Rain = 0
KME1 070950Z 18011KT 25/18 A3001 RMK A01 T02520178  RH  064%=      5-min Rain = 0
KME1 070951Z 17012KT 25/18 A3001 RMK A01 T02520179  RH  064%=      5-min Rain = 0
KME1 070952Z 17010KT 25/18 A3001 RMK A01 T02520179  RH  064%=      5-min Rain = 0
KME1 070953Z 17011G16KT 25/18 A3001 RMK A01 T02520179  RH  064%=      5-min Rain = 0
KME1 070954Z 18010KT 25/18 A3001 RMK A01 T02520180  RH  064%=      5-min Rain = 0
KME1 070955Z 17010KT 25/18 A3001 RMK A01 T02510179  RH  064%=      5-min Rain = 0
KME1 070956Z 17009KT 25/18 A3001 RMK A01 T02510179  RH  064%=      5-min Rain = 0
KME1 070957Z 17011KT 25/18 A3001 RMK A01 T02510180  RH  065%=      5-min Rain = 0
KME1 070958Z 17012KT 25/18 A3001 RMK A01 T02510180  RH  065%=      5-min Rain = 0
KME1 070959Z 18012KT 25/18 A3001 RMK A01 T02510180  RH  065%=      5-min Rain = 0
KME1 071000Z 17011KT 25/18 A3001 RMK A01 T02510181  RH  065%=      5-min Rain = 0
KME1 071001Z 17008KT 25/18 A3001 RMK A01 T02510180  RH  065%=      5-min Rain = 0
KME1 071002Z 17012KT 25/18 A3001 RMK A01 T02510180  RH  065%=      5-min Rain = 0
KME1 071003Z 18012G17KT 25/18 A3001 RMK A01 T02510181  RH  065%=      5-min Rain = 0
KME1 071004Z 17010KT 25/18 A3001 RMK A01 T02510181  RH  065%=      5-min Rain = 0
KME1 071005Z 17012KT 25/18 A3001 RMK A01 T02510180  RH  065%=      5-min Rain = 0
KME1 071006Z 17011KT 25/18 A3001 RMK A01 T02510181  RH  065%=      5-min Rain = 0
KME1 071007Z 18013KT 25/18 A3001 RMK A01 T02510180  RH  065%=      5-min Rain = 0
KME1 071008Z 17011KT 25/18 A3001 RMK A01 T02510181  RH  065%=      5-min Rain = 0
KME1 071009Z 17011KT 25/18 A3001 RMK A01 T02510181  RH  065%=      5-min Rain = 0
KME1 071010Z 17011KT 25/18 A3001 RMK A01 T02510181  RH  065%=      5-min Rain = 0
KME1 071011Z 17013KT 25/18 A3001 RMK A01 T02500181  RH  066%=      5-min Rain = 0
KME1 071012Z 17014KT 25/18 A3001 RMK A01 T02500182  RH  066%=      5-min Rain = 0
KME1 071013Z 17012G17KT 25/18 A3001 RMK A01 T02500182  RH  066%=      5-min Rain = 0
KME1 071014Z 18012KT 25/18 A3001 RMK A01 T02500182  RH  066%=      5-min Rain = 0
KME1 071015Z 17010KT 25/18 A3001 RMK A01 T02500182  RH  066%=      5-min Rain = 0
KME1 071016Z 17013KT 25/18 A3001 RMK A01 T02500182  RH  066%=      5-min Rain = 0
KME1 071017Z 17010KT 25/18 A3001 RMK A01 T02500183  RH  066%=      5-min Rain = 0
KME1 071018Z 17010KT 25/18 A3001 RMK A01 T02500183  RH  066%=      5-min Rain = 0
KME1 071019Z 17010KT 25/18 A3001 RMK A01 T02500183  RH  067%=      5-min Rain = 0
KME1 071020Z 17012KT 25/18 A3001 RMK A01 T02490184  RH  067%=      5-min Rain = 0
KME1 071021Z 17012KT 25/18 A3001 RMK A01 T02490184  RH  067%=      5-min Rain = 0
KME1 071022Z 18008KT 25/18 A3001 RMK A01 T02490184  RH  067%=      5-min Rain = 0
KME1 071023Z 17009KT 25/18 A3001 RMK A01 T02490184  RH  067%=      5-min Rain = 0
KME1 071024Z 18010KT 25/19 A3001 RMK A01 T02480185  RH  068%=      5-min Rain = 0
KME1 071025Z 18011KT 25/19 A3001 RMK A01 T02480185  RH  068%=      5-min Rain = 0
KME1 071026Z 17010KT 25/19 A3001 RMK A01 T02480185  RH  068%=      5-min Rain = 0
KME1 071027Z 17011KT 25/19 A3002 RMK A01 T02480186  RH  068%=      5-min Rain = 0
KME1 071028Z 18008KT 25/19 A3002 RMK A01 T02480186  RH  068%=      5-min Rain = 0
KME1 071029Z 18010KT 25/19 A3002 RMK A01 T02480186  RH  068%=      5-min Rain = 0
KME1 071030Z 18009KT 25/19 A3002 RMK A01 T02480186  RH  068%=      5-min Rain = 0
KME1 071031Z 18011KT 25/19 A3002 RMK A01 T02480187  RH  069%=      5-min Rain = 0
KME1 071032Z 18008KT 25/19 A3002 RMK A01 T02470187  RH  069%=      5-min Rain = 0
KME1 071033Z 18011KT 25/19 A3002 RMK A01 T02470187  RH  069%=      5-min Rain = 0
KME1 071034Z 18011KT 25/19 A3002 RMK A01 T02470188  RH  070%=      5-min Rain = 0
KME1 071035Z 18011KT 25/19 A3002 RMK A01 T02470188  RH  070%=      5-min Rain = 0
KME1 071036Z 18010KT 25/19 A3002 RMK A01 T02470188  RH  070%=      5-min Rain = 0
KME1 071037Z 18012KT 25/19 A3002 RMK A01 T02470188  RH  070%=      5-min Rain = 0
KME1 071038Z 18012KT 25/19 A3002 RMK A01 T02470189  RH  070%=      5-min Rain = 0
KME1 071039Z 18012KT 25/19 A3002 RMK A01 T02470190  RH  071%=      5-min Rain = 0
KME1 071040Z 17015KT 25/19 A3001 RMK A01 T02470190  RH  071%=      5-min Rain = 0
KME1 071041Z 18012KT 25/19 A3002 RMK A01 T02470190  RH  071%=      5-min Rain = 0
KME1 071042Z 18011KT 25/19 A3002 RMK A01 T02470190  RH  071%=      5-min Rain = 0
KME1 071043Z 17011KT 25/19 A3001 RMK A01 T02470191  RH  071%=      5-min Rain = 0
KME1 071044Z 17011KT 25/19 A3001 RMK A01 T02470191  RH  071%=      5-min Rain = 0
KME1 071045Z 17007KT 25/19 A3002 RMK A01 T02470191  RH  071%=      5-min Rain = 0
KME1 071046Z 18012KT 25/19 A3001 RMK A01 T02460191  RH  071%=      5-min Rain = 0
KME1 071047Z 17012KT 25/19 A3001 RMK A01 T02460191  RH  072%=      5-min Rain = 0
KME1 071048Z 17012KT 25/19 A3001 RMK A01 T02460192  RH  072%=      5-min Rain = 0
KME1 071049Z 17013KT 25/19 A3001 RMK A01 T02460192  RH  072%=      5-min Rain = 0
KME1 071050Z 17013KT 25/19 A3001 RMK A01 T02460192  RH  072%=      5-min Rain = 0
KME1 071051Z 17013KT 25/19 A3001 RMK A01 T02460192  RH  072%=      5-min Rain = 0
KME1 071052Z 17011KT 25/19 A3001 RMK A01 T02460192  RH  072%=      5-min Rain = 0
KME1 071053Z 17012KT 25/19 A3001 RMK A01 T02450192  RH  072%=      5-min Rain = 0
KME1 071054Z 17013KT 25/19 A3001 RMK A01 T02460192  RH  072%=      5-min Rain = 0
KME1 071055Z 17013G18KT 25/19 A3001 RMK A01 T02460192  RH  072%=      5-min Rain = 0
KME1 071056Z 17013G18KT 25/19 A3001 RMK A01 T02460192  RH  072%=      5-min Rain = 0
KME1 071057Z 17011KT 25/19 A3001 RMK A01 T02460192  RH  072%=      5-min Rain = 0
KME1 071058Z 18010KT 25/19 A3001 RMK A01 T02450192  RH  072%=      5-min Rain = 0
KME1 071059Z 17011KT 25/19 A3001 RMK A01 T02450192  RH  072%=      5-min Rain = 0
KME1 071100Z 17014KT 25/19 A3001 RMK A01 T02450192  RH  072%=      5-min Rain = 0
KME1 071101Z 17014KT 25/19 A3001 RMK A01 T02450192  RH  072%=      5-min Rain = 0
KME1 071102Z 18014KT 25/19 A3001 RMK A01 T02450192  RH  072%=      5-min Rain = 0
KME1 071103Z 18011KT 25/19 A3001 RMK A01 T02450192  RH  072%=      5-min Rain = 0
KME1 071104Z 17011KT 25/19 A3001 RMK A01 T02450192  RH  072%=      5-min Rain = 0
KME1 071105Z 18010KT 25/19 A3001 RMK A01 T02450192  RH  073%=      5-min Rain = 0
KME1 071106Z 17009KT 24/19 A3002 RMK A01 T02440192  RH  073%=      5-min Rain = 0
KME1 071107Z 18012KT 24/19 A3002 RMK A01 T02440192  RH  073%=      5-min Rain = 0
KME1 071108Z 18011KT 24/19 A3002 RMK A01 T02440193  RH  073%=      5-min Rain = 0
KME1 071109Z 17011G16KT 24/19 A3002 RMK A01 T02440193  RH  073%=      5-min Rain = 0
KME1 071110Z 18012KT 24/19 A3002 RMK A01 T02440193  RH  073%=      5-min Rain = 0
KME1 071111Z 18011KT 24/19 A3002 RMK A01 T02440193  RH  073%=      5-min Rain = 0
KME1 071112Z 18010G15KT 24/19 A3002 RMK A01 T02440193  RH  073%=      5-min Rain = 0
KME1 071113Z 17013KT 24/19 A3002 RMK A01 T02430193  RH  074%=      5-min Rain = 0
KME1 071114Z 18011G16KT 24/19 A3002 RMK A01 T02430194  RH  074%=      5-min Rain = 0
KME1 071115Z 17011G16KT 24/19 A3002 RMK A01 T02430194  RH  074%=      5-min Rain = 0
KME1 071116Z 18011KT 24/19 A3002 RMK A01 T02430194  RH  074%=      5-min Rain = 0
KME1 071117Z 17010KT 24/19 A3002 RMK A01 T02430194  RH  074%=      5-min Rain = 0
KME1 071118Z 17010KT 24/20 A3002 RMK A01 T02430195  RH  074%=      5-min Rain = 0
KME1 071119Z 18011KT 24/20 A3002 RMK A01 T02430195  RH  075%=      5-min Rain = 0
KME1 071120Z 17010KT 24/20 A3002 RMK A01 T02430195  RH  075%=      5-min Rain = 0
KME1 071121Z 17010KT 24/20 A3002 RMK A01 T02430196  RH  075%=      5-min Rain = 0
KME1 071122Z 17010KT 24/20 A3002 RMK A01 T02430196  RH  075%=      5-min Rain = 0
KME1 071123Z 17011KT 24/20 A3002 RMK A01 T02420195  RH  075%=      5-min Rain = 0
KME1 071124Z 18014KT 24/20 A3002 RMK A01 T02420196  RH  075%=      5-min Rain = 0
KME1 071125Z 18012KT 24/20 A3002 RMK A01 T02430197  RH  075%=      5-min Rain = 0
KME1 071126Z 17012KT 24/20 A3002 RMK A01 T02430197  RH  075%=      5-min Rain = 0
KME1 071127Z 18013KT 24/20 A3002 RMK A01 T02430197  RH  075%=      5-min Rain = 0
KME1 071128Z 18011KT 24/20 A3002 RMK A01 T02430197  RH  076%=      5-min Rain = 0
KME1 071129Z 18009KT 24/20 A3002 RMK A01 T02430197  RH  076%=      5-min Rain = 0
KME1 071130Z 18010KT 24/20 A3002 RMK A01 T02430197  RH  076%=      5-min Rain = 0
KME1 071131Z 18010KT 24/20 A3002 RMK A01 T02420197  RH  076%=      5-min Rain = 0
KME1 071132Z 18012KT 24/20 A3002 RMK A01 T02420198  RH  076%=      5-min Rain = 0
KME1 071133Z 18012KT 24/20 A3003 RMK A01 T02430199  RH  076%=      5-min Rain = 0
KME1 071134Z 18013KT 24/20 A3003 RMK A01 T02420199  RH  077%=      5-min Rain = 0
KME1 071135Z 17010KT 24/20 A3003 RMK A01 T02420199  RH  077%=      5-min Rain = 0
KME1 071136Z 18010KT 24/20 A3003 RMK A01 T02420199  RH  077%=      5-min Rain = 0
KME1 071137Z 18009KT 24/20 A3003 RMK A01 T02420199  RH  077%=      5-min Rain = 0
KME1 071138Z 18012KT 24/20 A3003 RMK A01 T02420199  RH  077%=      5-min Rain = 0
KME1 071139Z 18013KT 24/20 A3003 RMK A01 T02410200  RH  078%=      5-min Rain = 0
KME1 071140Z 18013KT 24/20 A3003 RMK A01 T02420200  RH  077%=      5-min Rain = 0
KME1 071141Z 18012KT 24/20 A3003 RMK A01 T02420200  RH  077%=      5-min Rain = 0
KME1 071142Z 17011KT 24/20 A3003 RMK A01 T02420201  RH  077%=      5-min Rain = 0
KME1 071143Z 18011KT 24/20 A3003 RMK A01 T02420200  RH  077%=      5-min Rain = 0
KME1 071144Z 18010KT 24/20 A3003 RMK A01 T02420201  RH  078%=      5-min Rain = 0
KME1 071145Z 18010KT 24/20 A3003 RMK A01 T02420201  RH  078%=      5-min Rain = 0
KME1 071146Z 18012KT 24/20 A3003 RMK A01 T02420202  RH  078%=      5-min Rain = 0
KME1 071147Z 18015G21KT 24/20 A3003 RMK A01 T02420202  RH  078%=      5-min Rain = 0
KME1 071148Z 17012KT 24/20 A3003 RMK A01 T02420202  RH  078%=      5-min Rain = 0
KME1 071149Z 18011KT 24/20 A3003 RMK A01 T02420202  RH  078%=      5-min Rain = 0
KME1 071150Z 17012KT 24/20 A3003 RMK A01 T02420202  RH  078%=      5-min Rain = 0
KME1 071151Z 18012KT 24/20 A3003 RMK A01 T02420203  RH  079%=      5-min Rain = 0
KME1 071152Z 18011KT 24/20 A3003 RMK A01 T02420203  RH  078%=      5-min Rain = 0
KME1 071153Z 18012KT 24/20 A3003 RMK A01 T02420203  RH  079%=      5-min Rain = 0
KME1 071154Z 19011KT 24/20 A3003 RMK A01 T02420203  RH  079%=      5-min Rain = 0
KME1 071155Z 18011KT 24/20 A3003 RMK A01 T02420203  RH  079%=      5-min Rain = 0
KME1 071156Z 18012KT 24/20 A3003 RMK A01 T02430203  RH  079%=      5-min Rain = 0
KME1 071157Z 18013KT 24/20 A3003 RMK A01 T02430204  RH  079%=      5-min Rain = 0
KME1 071158Z 18011KT 24/20 A3003 RMK A01 T02440204  RH  079%=      5-min Rain = 0
KME1 071159Z 18009KT 24/20 A3003 RMK A01 T02440204  RH  078%=      5-min Rain = 0
KME1 071200Z 18010KT 24/20 A3003 RMK A01 T02440204  RH  078%=      5-min Rain = 0
KME1 071201Z 19010KT 24/20 A3003 RMK A01 T02440204  RH  078%=      5-min Rain = 0
KME1 071202Z 18008KT 24/21 A3003 RMK A01 T02440205  RH  078%=      5-min Rain = 0
KME1 071203Z 18012KT 25/21 A3003 RMK A01 T02450205  RH  078%=      5-min Rain = 0
KME1 071204Z 17011KT 25/21 A3003 RMK A01 T02450205  RH  078%=      5-min Rain = 0
KME1 071205Z 18012KT 25/21 A3003 RMK A01 T02460205  RH  078%=      5-min Rain = 0
KME1 071206Z 17009KT 25/21 A3003 RMK A01 T02460205  RH  078%=      5-min Rain = 0
KME1 071207Z 18010G15KT 25/21 A3003 RMK A01 T02460205  RH  078%=      5-min Rain = 0
KME1 071208Z 18013KT 25/21 A3003 RMK A01 T02460205  RH  078%=      5-min Rain = 0
KME1 071209Z 18013KT 25/21 A3003 RMK A01 T02470205  RH  078%=      5-min Rain = 0
KME1 071210Z 18012KT 25/21 A3003 RMK A01 T02480205  RH  077%=      5-min Rain = 0
KME1 071211Z 18011G16KT 25/21 A3003 RMK A01 T02480205  RH  077%=      5-min Rain = 0
KME1 071212Z 18010KT 25/21 A3003 RMK A01 T02480205  RH  077%=      5-min Rain = 0
KME1 071213Z 17013KT 25/21 A3004 RMK A01 T02490205  RH  077%=      5-min Rain = 0
KME1 071214Z 17014KT 25/21 A3003 RMK A01 T02490205  RH  077%=      5-min Rain = 0
KME1 071215Z 17014KT 25/21 A3004 RMK A01 T02490205  RH  076%=      5-min Rain = 0
KME1 071216Z 17011KT 25/21 A3003 RMK A01 T02490205  RH  076%=      5-min Rain = 0
KME1 071217Z 18010KT 25/21 A3003 RMK A01 T02500205  RH  076%=      5-min Rain = 0
KME1 071218Z 18010KT 25/21 A3003 RMK A01 T02490205  RH  076%=      5-min Rain = 0
KME1 071219Z 18011G17KT 25/21 A3003 RMK A01 T02490205  RH  076%=      5-min Rain = 0
KME1 071220Z 18013G18KT 25/21 A3003 RMK A01 T02490206  RH  077%=      5-min Rain = 0
KME1 071221Z 17011KT 25/21 A3003 RMK A01 T02490205  RH  076%=      5-min Rain = 0
KME1 071222Z 18012KT 25/21 A3003 RMK A01 T02500205  RH  076%=      5-min Rain = 0
KME1 071223Z 17012KT 25/21 A3003 RMK A01 T02490205  RH  076%=      5-min Rain = 0
KME1 071224Z 18011KT 25/21 A3003 RMK A01 T02490205  RH  076%=      5-min Rain = 0
KME1 071225Z 17011KT 25/21 A3003 RMK A01 T02490205  RH  076%=      5-min Rain = 0
KME1 071226Z 18014KT 25/21 A3003 RMK A01 T02490205  RH  076%=      5-min Rain = 0
KME1 071227Z 17013KT 25/21 A3003 RMK A01 T02500205  RH  076%=      5-min Rain = 0
KME1 071228Z 18012KT 25/21 A3003 RMK A01 T02500205  RH  076%=      5-min Rain = 0
KME1 071229Z 17013KT 25/21 A3003 RMK A01 T02500206  RH  076%=      5-min Rain = 0
KME1 071230Z 17012G17KT 25/21 A3003 RMK A01 T02500205  RH  076%=      5-min Rain = 0
KME1 071231Z 18012KT 25/21 A3003 RMK A01 T02500205  RH  076%=      5-min Rain = 0
KME1 071232Z 17013G18KT 25/21 A3003 RMK A01 T02500206  RH  076%=      5-min Rain = 0
KME1 071233Z 17013KT 25/21 A3003 RMK A01 T02500206  RH  076%=      5-min Rain = 0
KME1 071234Z 17013KT 25/21 A3003 RMK A01 T02500206  RH  076%=      5-min Rain = 0
KME1 071235Z 18011KT 25/21 A3003 RMK A01 T02500206  RH  076%=      5-min Rain = 0
KME1 071236Z 17011KT 25/21 A3003 RMK A01 T02500206  RH  076%=      5-min Rain = 0
KME1 071237Z 18010KT 25/21 A3003 RMK A01 T02500206  RH  076%=      5-min Rain = 0
KME1 071238Z 18015KT 25/21 A3003 RMK A01 T02500206  RH  076%=      5-min Rain = 0
KME1 071239Z 17013KT 25/21 A3003 RMK A01 T02500206  RH  076%=      5-min Rain = 0
KME1 071240Z 17013G18KT 25/21 A3003 RMK A01 T02510206  RH  076%=      5-min Rain = 0
KME1 071241Z 18013KT 25/21 A3003 RMK A01 T02510205  RH  076%=      5-min Rain = 0
KME1 071242Z 17013KT 25/21 A3003 RMK A01 T02510206  RH  076%=      5-min Rain = 0
KME1 071243Z 18011KT 25/21 A3003 RMK A01 T02510206  RH  076%=      5-min Rain = 0
KME1 071244Z 18008KT 25/21 A3003 RMK A01 T02520206  RH  076%=      5-min Rain = 0
KME1 071245Z 18011KT 25/21 A3003 RMK A01 T02520206  RH  076%=      5-min Rain = 0
KME1 071246Z 18012KT 25/21 A3003 RMK A01 T02520206  RH  075%=      5-min Rain = 0
KME1 071247Z 17009KT 25/21 A3003 RMK A01 T02530206  RH  075%=      5-min Rain = 0
KME1 071248Z 18010KT 25/21 A3003 RMK A01 T02530206  RH  075%=      5-min Rain = 0
KME1 071249Z 17010KT 25/21 A3003 RMK A01 T02540206  RH  075%=      5-min Rain = 0
KME1 071250Z 18010KT 25/21 A3003 RMK A01 T02540206  RH  075%=      5-min Rain = 0
KME1 071251Z 17011KT 25/21 A3003 RMK A01 T02540206  RH  075%=      5-min Rain = 0
KME1 071252Z 18009KT 26/21 A3004 RMK A01 T02550206  RH  074%=      5-min Rain = 0
KME1 071253Z 18012KT 26/21 A3004 RMK A01 T02550206  RH  074%=      5-min Rain = 0
KME1 071254Z 17012KT 26/21 A3004 RMK A01 T02550206  RH  074%=      5-min Rain = 0
KME1 071255Z 17011KT 26/21 A3004 RMK A01 T02550206  RH  074%=      5-min Rain = 0
KME1 071256Z 18011KT 26/21 A3004 RMK A01 T02560206  RH  074%=      5-min Rain = 0
KME1 071257Z 17014KT 26/21 A3004 RMK A01 T02560206  RH  074%=      5-min Rain = 0
KME1 071258Z 18012KT 26/21 A3004 RMK A01 T02560206  RH  074%=      5-min Rain = 0
KME1 071259Z 18009KT 26/21 A3004 RMK A01 T02570206  RH  074%=      5-min Rain = 0
KME1 071300Z 18011KT 26/21 A3004 RMK A01 T02570206  RH  074%=      5-min Rain = 0
KME1 071301Z 18014KT 26/21 A3004 RMK A01 T02580206  RH  073%=      5-min Rain = 0
KME1 071302Z 18014KT 26/21 A3004 RMK A01 T02580207  RH  073%=      5-min Rain = 0
KME1 071303Z 18012KT 26/21 A3004 RMK A01 T02580207  RH  073%=      5-min Rain = 0
KME1 071304Z 18012G17KT 26/21 A3004 RMK A01 T02580207  RH  073%=      5-min Rain = 0
KME1 071305Z 18013KT 26/21 A3004 RMK A01 T02590207  RH  073%=      5-min Rain = 0
KME1 071306Z 17012G18KT 26/21 A3004 RMK A01 T02590207  RH  073%=      5-min Rain = 0
KME1 071307Z 18013KT 26/21 A3004 RMK A01 T02590207  RH  073%=      5-min Rain = 0
KME1 071308Z 18013KT 26/21 A3004 RMK A01 T02590207  RH  073%=      5-min Rain = 0
KME1 071309Z 18011KT 26/21 A3004 RMK A01 T02600207  RH  073%=      5-min Rain = 0
KME1 071310Z 17010KT 26/21 A3004 RMK A01 T02600207  RH  073%=      5-min Rain = 0
KME1 071311Z 19013KT 26/21 A3004 RMK A01 T02600207  RH  072%=      5-min Rain = 0
KME1 071312Z 18013KT 26/21 A3004 RMK A01 T02610207  RH  072%=      5-min Rain = 0
KME1 071313Z 19012G17KT 26/21 A3004 RMK A01 T02610207  RH  072%=      5-min Rain = 0
KME1 071314Z 18013G18KT 26/21 A3004 RMK A01 T02610207  RH  072%=      5-min Rain = 0
KME1 071315Z 18011KT 26/21 A3004 RMK A01 T02610207  RH  072%=      5-min Rain = 0
KME1 071316Z 18010G15KT 26/21 A3004 RMK A01 T02620207  RH  072%=      5-min Rain = 0
KME1 071317Z 17009G14KT 26/21 A3004 RMK A01 T02620207  RH  072%=      5-min Rain = 0
KME1 071318Z 18009KT 26/21 A3004 RMK A01 T02630208  RH  072%=      5-min Rain = 0
KME1 071319Z 19009KT 26/21 A3004 RMK A01 T02630208  RH  071%=      5-min Rain = 0
KME1 071320Z 19008KT 26/21 A3004 RMK A01 T02640208  RH  071%=      5-min Rain = 0
KME1 071321Z 18013KT 27/21 A3004 RMK A01 T02650208  RH  071%=      5-min Rain = 0
KME1 071322Z 19012KT 27/21 A3004 RMK A01 T02650207  RH  070%=      5-min Rain = 0
KME1 071323Z 18012KT 27/21 A3004 RMK A01 T02650208  RH  071%=      5-min Rain = 0
KME1 071324Z 20010KT 27/21 A3004 RMK A01 T02650208  RH  071%=      5-min Rain = 0
KME1 071325Z 18010G15KT 27/21 A3004 RMK A01 T02660207  RH  070%=      5-min Rain = 0
KME1 071326Z 19011KT 27/21 A3005 RMK A01 T02670208  RH  070%=      5-min Rain = 0
KME1 071327Z 17011KT 27/21 A3005 RMK A01 T02670207  RH  070%=      5-min Rain = 0
KME1 071328Z 19011G16KT 27/21 A3005 RMK A01 T02670207  RH  070%=      5-min Rain = 0
KME1 071329Z 19012G17KT 27/21 A3005 RMK A01 T02670208  RH  070%=      5-min Rain = 0
KME1 071330Z 18013KT 27/21 A3004 RMK A01 T02670207  RH  070%=      5-min Rain = 0
KME1 071331Z 18012KT 27/21 A3005 RMK A01 T02670207  RH  070%=      5-min Rain = 0
KME1 071332Z 19016KT 27/21 A3005 RMK A01 T02670207  RH  070%=      5-min Rain = 0
KME1 071333Z 17014KT 27/21 A3005 RMK A01 T02670206  RH  070%=      5-min Rain = 0
KME1 071334Z 19015G21KT 27/21 A3005 RMK A01 T02670206  RH  069%=      5-min Rain = 0
KME1 071335Z 17016G21KT 27/21 A3005 RMK A01 T02680205  RH  069%=      5-min Rain = 0
KME1 071336Z 18015KT 27/21 A3005 RMK A01 T02670205  RH  069%=      5-min Rain = 0
KME1 071337Z 19014KT 27/21 A3005 RMK A01 T02670206  RH  069%=      5-min Rain = 0
KME1 071338Z 18010G16KT 27/21 A3005 RMK A01 T02680207  RH  069%=      5-min Rain = 0
KME1 071339Z 17011G16KT 27/21 A3005 RMK A01 T02680207  RH  069%=      5-min Rain = 0
KME1 071340Z 17014G19KT 27/21 A3005 RMK A01 T02680207  RH  069%=      5-min Rain = 0
KME1 071341Z 18013KT 27/21 A3005 RMK A01 T02690206  RH  069%=      5-min Rain = 0
KME1 071342Z 19010KT 27/21 A3005 RMK A01 T02690207  RH  069%=      5-min Rain = 0
KME1 071343Z 18013KT 27/21 A3005 RMK A01 T02690207  RH  069%=      5-min Rain = 0
KME1 071344Z 18013KT 27/21 A3005 RMK A01 T02710207  RH  068%=      5-min Rain = 0
KME1 071345Z 19011KT 27/21 A3005 RMK A01 T02720207  RH  068%=      5-min Rain = 0
KME1 071346Z 18015KT 27/21 A3005 RMK A01 T02730207  RH  067%=      5-min Rain = 0
KME1 071347Z 18013G19KT 27/21 A3005 RMK A01 T02730207  RH  067%=      5-min Rain = 0
KME1 071348Z 19012G18KT 27/21 A3005 RMK A01 T02740206  RH  067%=      5-min Rain = 0
KME1 071349Z 20012G17KT 27/21 A3005 RMK A01 T02740207  RH  067%=      5-min Rain = 0
KME1 071350Z 18014KT 28/21 A3005 RMK A01 T02750207  RH  066%=      5-min Rain = 0
KME1 071351Z 18013G18KT 28/21 A3005 RMK A01 T02760207  RH  066%=      5-min Rain = 0
KME1 071352Z 18013KT 28/21 A3005 RMK A01 T02760207  RH  066%=      5-min Rain = 0
KME1 071353Z 18013G18KT 28/21 A3005 RMK A01 T02760207  RH  066%=      5-min Rain = 0
KME1 071354Z 19013G18KT 28/21 A3005 RMK A01 T02760207  RH  066%=      5-min Rain = 0
KME1 071355Z 18012G17KT 28/21 A3005 RMK A01 T02770207  RH  066%=      5-min Rain = 0
KME1 071356Z 18016G21KT 28/21 A3005 RMK A01 T02780207  RH  065%=      5-min Rain = 0
KME1 071357Z 18018KT 28/21 A3005 RMK A01 T02780206  RH  065%=      5-min Rain = 0
KME1 071358Z 18017KT 28/21 A3005 RMK A01 T02760205  RH  065%=      5-min Rain = 0
KME1 071359Z 18014KT 28/21 A3005 RMK A01 T02760205  RH  066%=      5-min Rain = 0
KME1 071400Z 19018KT 28/21 A3005 RMK A01 T02760206  RH  066%=      5-min Rain = 0
KME1 071401Z 18018KT 28/21 A3005 RMK A01 T02750205  RH  065%=      5-min Rain = 0
KME1 071402Z 19018G23KT 28/20 A3005 RMK A01 T02750204  RH  065%=      5-min Rain = 0
KME1 071403Z 18017G22KT 28/20 A3005 RMK A01 T02750203  RH  065%=      5-min Rain = 0
KME1 071404Z 18019KT 28/20 A3005 RMK A01 T02750203  RH  065%=      5-min Rain = 0
KME1 071405Z 18019G24KT 28/20 A3005 RMK A01 T02750202  RH  064%=      5-min Rain = 0
KME1 071406Z 18017KT 27/20 A3005 RMK A01 T02730201  RH  065%=      5-min Rain = 0
KME1 071407Z 19018KT 27/20 A3005 RMK A01 T02720202  RH  066%=      5-min Rain = 0
KME1 071408Z 18017G24KT 27/20 A3005 RMK A01 T02720203  RH  066%=      5-min Rain = 0
KME1 071409Z 18016KT 27/20 A3005 RMK A01 T02720203  RH  066%=      5-min Rain = 0
KME1 071410Z 19013G18KT 27/20 A3005 RMK A01 T02740203  RH  065%=      5-min Rain = 0
KME1 071411Z 17012G18KT 28/20 A3005 RMK A01 T02760203  RH  065%=      5-min Rain = 0
KME1 071412Z 18011KT 28/21 A3005 RMK A01 T02780205  RH  064%=      5-min Rain = 0
KME1 071413Z 19014KT 28/21 A3005 RMK A01 T02810205  RH  063%=      5-min Rain = 0
KME1 071414Z 18014KT 28/20 A3005 RMK A01 T02820204  RH  063%=      5-min Rain = 0
KME1 071415Z 18012KT 28/20 A3005 RMK A01 T02820204  RH  063%=      5-min Rain = 0
KME1 071416Z 18017G24KT 28/20 A3005 RMK A01 T02820204  RH  063%=      5-min Rain = 0
KME1 071417Z 18014KT 28/20 A3006 RMK A01 T02820204  RH  063%=      5-min Rain = 0
KME1 071418Z 17017G23KT 28/20 A3006 RMK A01 T02820203  RH  062%=      5-min Rain = 0
KME1 071419Z 17018KT 28/20 A3006 RMK A01 T02820203  RH  062%=      5-min Rain = 0
KME1 071420Z 18015KT 28/20 A3006 RMK A01 T02820203  RH  062%=      5-min Rain = 0
KME1 071421Z 18016G22KT 28/20 A3006 RMK A01 T02820203  RH  062%=      5-min Rain = 0
KME1 071422Z 17013KT 28/20 A3006 RMK A01 T02820203  RH  062%=      5-min Rain = 0
KME1 071423Z 17013G18KT 28/20 A3006 RMK A01 T02820203  RH  062%=      5-min Rain = 0
KME1 071424Z 17013KT 28/20 A3006 RMK A01 T02840203  RH  061%=      5-min Rain = 0
KME1 071425Z 18016G25KT 29/20 A3006 RMK A01 T02850204  RH  061%=      5-min Rain = 0
KME1 071426Z 19020KT 29/20 A3006 RMK A01 T02860200  RH  060%=      5-min Rain = 0
KME1 071427Z 19016G21KT 28/20 A3006 RMK A01 T02840199  RH  060%=      5-min Rain = 0
KME1 071428Z 19018G23KT 28/20 A3006 RMK A01 T02830199  RH  060%=      5-min Rain = 0
KME1 071429Z 18018KT 28/20 A3006 RMK A01 T02840199  RH  060%=      5-min Rain = 0
KME1 071430Z 18016G21KT 29/20 A3006 RMK A01 T02850199  RH  060%=      5-min Rain = 0
KME1 071431Z 18017G22KT 29/20 A3006 RMK A01 T02860199  RH  059%=      5-min Rain = 0
KME1 071432Z 18015KT 29/20 A3006 RMK A01 T02860199  RH  059%=      5-min Rain = 0
KME1 071433Z 17017KT 29/20 A3006 RMK A01 T02850199  RH  059%=      5-min Rain = 0
KME1 071434Z 18013KT 29/20 A3006 RMK A01 T02850199  RH  060%=      5-min Rain = 0
KME1 071435Z 18011KT 29/20 A3006 RMK A01 T02860200  RH  060%=      5-min Rain = 0
KME1 071436Z 18017G23KT 29/20 A3006 RMK A01 T02880200  RH  059%=      5-min Rain = 0
KME1 071437Z 17021G26KT 29/20 A3006 RMK A01 T02880197  RH  058%=      5-min Rain = 0
KME1 071438Z 18020G27KT 29/20 A3006 RMK A01 T02860196  RH  058%=      5-min Rain = 0
KME1 071439Z 17020G26KT 29/20 A3006 RMK A01 T02860196  RH  058%=      5-min Rain = 0
KME1 071440Z 18016G26KT 29/20 A3006 RMK A01 T02850197  RH  059%=      5-min Rain = 0
KME1 071441Z 18020G25KT 29/20 A3006 RMK A01 T02860197  RH  058%=      5-min Rain = 0
KME1 071442Z 18017G22KT 29/20 A3006 RMK A01 T02860197  RH  059%=      5-min Rain = 0
KME1 071443Z 18016G21KT 29/20 A3006 RMK A01 T02860197  RH  058%=      5-min Rain = 0
KME1 071444Z 18019G24KT 29/20 A3006 RMK A01 T02870197  RH  058%=      5-min Rain = 0
KME1 071445Z 18018KT 29/20 A3006 RMK A01 T02870198  RH  059%=      5-min Rain = 0
KME1 071446Z 19016KT 29/20 A3007 RMK A01 T02860198  RH  059%=      5-min Rain = 0
KME1 071447Z 18015KT 29/20 A3007 RMK A01 T02860198  RH  059%=      5-min Rain = 0
KME1 071448Z 18018G24KT 29/20 A3006 RMK A01 T02870196  RH  058%=      5-min Rain = 0
KME1 071449Z 19015KT 29/20 A3006 RMK A01 T02870195  RH  058%=      5-min Rain = 0
KME1 071450Z 19019KT 29/20 A3006 RMK A01 T02870195  RH  057%=      5-min Rain = 0
KME1 071451Z 19020G25KT 29/20 A3006 RMK A01 T02860195  RH  058%=      5-min Rain = 0
KME1 071452Z 18019KT 29/20 A3006 RMK A01 T02850196  RH  059%=      5-min Rain = 0
KME1 071453Z 19018KT 29/20 A3006 RMK A01 T02850196  RH  059%=      5-min Rain = 0
KME1 071454Z 18017KT 28/20 A3007 RMK A01 T02840197  RH  059%=      5-min Rain = 0
KME1 071455Z 18014KT 28/20 A3007 RMK A01 T02840197  RH  059%=      5-min Rain = 0
KME1 071456Z 18016KT 28/20 A3007 RMK A01 T02840197  RH  059%=      5-min Rain = 0
KME1 071457Z 18012KT 28/20 A3007 RMK A01 T02840198  RH  059%=      5-min Rain = 0
KME1 071458Z 18009KT 28/20 A3007 RMK A01 T02830198  RH  060%=      5-min Rain = 0
KME1 071459Z 17014KT 28/20 A3007 RMK A01 T02840198  RH  060%=      5-min Rain = 0
KME1 071500Z 18014G19KT 28/20 A3007 RMK A01 T02840198  RH  060%=      5-min Rain = 0
KME1 071501Z 18016KT 28/20 A3007 RMK A01 T02840198  RH  059%=      5-min Rain = 0
KME1 071502Z 19013G18KT 28/20 A3007 RMK A01 T02840198  RH  059%=      5-min Rain = 0
KME1 071503Z 18014KT 29/20 A3007 RMK A01 T02850197  RH  059%=      5-min Rain = 0
KME1 071504Z 18014KT 29/20 A3007 RMK A01 T02850197  RH  059%=      5-min Rain = 0
KME1 071505Z 18013KT 28/20 A3007 RMK A01 T02840197  RH  059%=      5-min Rain = 0
KME1 071506Z 18014KT 28/20 A3007 RMK A01 T02830197  RH  059%=      5-min Rain = 0
KME1 071507Z 18014G19KT 28/20 A3007 RMK A01 T02820197  RH  060%=      5-min Rain = 0
KME1 071508Z 18016KT 28/20 A3007 RMK A01 T02810197  RH  060%=      5-min Rain = 0
KME1 071509Z 17015KT 28/20 A3007 RMK A01 T02810198  RH  061%=      5-min Rain = 0
KME1 071510Z 17017KT 28/20 A3007 RMK A01 T02810197  RH  060%=      5-min Rain = 0
KME1 071511Z 18016KT 28/20 A3007 RMK A01 T02800196  RH  060%=      5-min Rain = 0
KME1 071512Z 19014KT 28/20 A3007 RMK A01 T02820197  RH  060%=      5-min Rain = 0
KME1 071513Z 19015G20KT 29/20 A3007 RMK A01 T02850198  RH  059%=      5-min Rain = 0
KME1 071514Z 18014G19KT 29/20 A3007 RMK A01 T02890198  RH  058%=      5-min Rain = 0
KME1 071515Z 18015KT 29/20 A3007 RMK A01 T02900198  RH  058%=      5-min Rain = 0
KME1 071516Z 18014G19KT 29/20 A3007 RMK A01 T02890197  RH  057%=      5-min Rain = 0
KME1 071517Z 18016KT 29/20 A3007 RMK A01 T02890197  RH  057%=      5-min Rain = 0
KME1 071518Z 18015KT 29/20 A3007 RMK A01 T02890197  RH  058%=      5-min Rain = 0
KME1 071519Z 18016KT 29/20 A3007 RMK A01 T02880198  RH  058%=      5-min Rain = 0
KME1 071520Z 18015KT 29/20 A3007 RMK A01 T02890198  RH  058%=      5-min Rain = 0
KME1 071521Z 18012G18KT 29/20 A3007 RMK A01 T02900199  RH  058%=      5-min Rain = 0
KME1 071522Z 18016KT 29/20 A3007 RMK A01 T02930199  RH  057%=      5-min Rain = 0
KME1 071523Z 19013KT 29/20 A3007 RMK A01 T02940200  RH  057%=      5-min Rain = 0
KME1 071524Z 18015KT 29/20 A3007 RMK A01 T02940200  RH  057%=      5-min Rain = 0
KME1 071525Z 17016G22KT 29/20 A3007 RMK A01 T02940199  RH  057%=      5-min Rain = 0
KME1 071526Z 17015G24KT 29/20 A3007 RMK A01 T02940198  RH  056%=      5-min Rain = 0
KME1 071527Z 18018KT 30/20 A3007 RMK A01 T02950198  RH  056%=      5-min Rain = 0
KME1 071528Z 18016KT 29/20 A3007 RMK A01 T02940199  RH  056%=      5-min Rain = 0
KME1 071529Z 17017G23KT 29/20 A3007 RMK A01 T02940198  RH  056%=      5-min Rain = 0
KME1 071530Z 18012KT 30/20 A3007 RMK A01 T02950198  RH  056%=      5-min Rain = 0
KME1 071531Z 18017G22KT 30/20 A3007 RMK A01 T02960198  RH  056%=      5-min Rain = 0
KME1 071532Z 18017KT 30/20 A3007 RMK A01 T02960199  RH  056%=      5-min Rain = 0
KME1 071533Z 18016KT 30/20 A3007 RMK A01 T02950197  RH  056%=      5-min Rain = 0
KME1 071534Z 19014G19KT 30/20 A3007 RMK A01 T02950197  RH  056%=      5-min Rain = 0
KME1 071535Z 19016KT 30/20 A3007 RMK A01 T02970198  RH  055%=      5-min Rain = 0
KME1 071536Z 19015KT 30/20 A3007 RMK A01 T02980197  RH  055%=      5-min Rain = 0
KME1 071537Z 19016KT 30/20 A3007 RMK A01 T03000198  RH  054%=      5-min Rain = 0
KME1 071538Z 19013KT 30/20 A3007 RMK A01 T03000198  RH  054%=      5-min Rain = 0
KME1 071539Z 18012KT 30/20 A3007 RMK A01 T03020198  RH  054%=      5-min Rain = 0
KME1 071540Z 19017G23KT 30/20 A3007 RMK A01 T03030199  RH  054%=      5-min Rain = 0
KME1 071541Z 19018KT 30/20 A3007 RMK A01 T03030197  RH  053%=      5-min Rain = 0
KME1 071542Z 18015KT 30/20 A3007 RMK A01 T03010197  RH  054%=      5-min Rain = 0
KME1 071543Z 18018KT 30/20 A3007 RMK A01 T03010197  RH  054%=      5-min Rain = 0
KME1 071544Z 18016KT 30/20 A3007 RMK A01 T02990196  RH  054%=      5-min Rain = 0
KME1 071545Z 18016G22KT 30/20 A3007 RMK A01 T02980196  RH  054%=      5-min Rain = 0
KME1 071546Z 19014KT 30/20 A3007 RMK A01 T03000196  RH  054%=      5-min Rain = 0
KME1 071547Z 18014KT 30/20 A3007 RMK A01 T03020197  RH  054%=      5-min Rain = 0
KME1 071548Z 20013G18KT 30/20 A3007 RMK A01 T03030198  RH  053%=      5-min Rain = 0
KME1 071549Z 19017KT 31/20 A3008 RMK A01 T03050197  RH  053%=      5-min Rain = 0
KME1 071550Z 19017KT 30/20 A3007 RMK A01 T03030196  RH  053%=      5-min Rain = 0
KME1 071551Z 20013KT 30/20 A3007 RMK A01 T03010197  RH  054%=      5-min Rain = 0
KME1 071552Z 19015KT 30/20 A3007 RMK A01 T03010196  RH  053%=      5-min Rain = 0
KME1 071553Z 19015G22KT 30/20 A3008 RMK A01 T03030196  RH  053%=      5-min Rain = 0
KME1 071554Z 20017KT 30/20 A3008 RMK A01 T03040197  RH  053%=      5-min Rain = 0
KME1 071555Z 20015G20KT 30/20 A3008 RMK A01 T03030198  RH  053%=      5-min Rain = 0
KME1 071556Z 20016G21KT 30/20 A3008 RMK A01 T03030198  RH  053%=      5-min Rain = 0
KME1 071557Z 19017G22KT 30/20 A3008 RMK A01 T03040198  RH  053%=      5-min Rain = 0
KME1 071558Z 20012KT 30/20 A3008 RMK A01 T03030198  RH  053%=      5-min Rain = 0
KME1 071559Z 20012KT 30/20 A3008 RMK A01 T03040198  RH  053%=      5-min Rain = 0
KME1 071600Z 19013KT 31/20 A3008 RMK A01 T03050198  RH  053%=      5-min Rain = 0
KME1 071601Z 19015G21KT 31/20 A3008 RMK A01 T03070197  RH  052%=      5-min Rain = 0
KME1 071602Z 18018KT 31/20 A3008 RMK A01 T03070197  RH  052%=      5-min Rain = 0
KME1 071603Z 18017KT 31/20 A3007 RMK A01 T03050195  RH  052%=      5-min Rain = 0
KME1 071604Z 18016KT 30/20 A3008 RMK A01 T03030195  RH  052%=      5-min Rain = 0
KME1 071605Z 18016KT 30/20 A3008 RMK A01 T03020196  RH  053%=      5-min Rain = 0
KME1 071606Z 19012KT 30/20 A3007 RMK A01 T03020197  RH  053%=      5-min Rain = 0
KME1 071607Z 19016KT 31/20 A3007 RMK A01 T03050196  RH  052%=      5-min Rain = 0
KME1 071608Z 19014KT 31/19 A3007 RMK A01 T03050194  RH  052%=      5-min Rain = 0
KME1 071609Z 18017KT 31/19 A3008 RMK A01 T03050194  RH  051%=      5-min Rain = 0
KME1 071610Z 19017G23KT 31/19 A3007 RMK A01 T03050192  RH  051%=      5-min Rain = 0
KME1 071611Z 19017G22KT 31/19 A3007 RMK A01 T03050193  RH  051%=      5-min Rain = 0
KME1 071612Z 18017KT 31/19 A3007 RMK A01 T03050194  RH  052%=      5-min Rain = 0
KME1 071613Z 18018KT 31/19 A3007 RMK A01 T03050194  RH  051%=      5-min Rain = 0
KME1 071614Z 19014KT 30/19 A3007 RMK A01 T03040194  RH  052%=      5-min Rain = 0
KME1 071615Z 18015G20KT 30/19 A3007 RMK A01 T03040194  RH  052%=      5-min Rain = 0
KME1 071616Z 16013KT 30/20 A3007 RMK A01 T03040195  RH  052%=      5-min Rain = 0
KME1 071617Z 18014KT 31/20 A3007 RMK A01 T03060195  RH  052%=      5-min Rain = 0
KME1 071618Z 18014G20KT 31/20 A3007 RMK A01 T03080195  RH  051%=      5-min Rain = 0
KME1 071619Z 18014KT 31/20 A3007 RMK A01 T03100195  RH  050%=      5-min Rain = 0
KME1 071620Z 17015G20KT 31/19 A3007 RMK A01 T03110194  RH  050%=      5-min Rain = 0
KME1 071621Z 18015G20KT 31/19 A3007 RMK A01 T03120194  RH  049%=      5-min Rain = 0
KME1 071622Z 17016KT 31/19 A3007 RMK A01 T03120193  RH  049%=      5-min Rain = 0
KME1 071623Z 17020KT 31/19 A3007 RMK A01 T03110191  RH  049%=      5-min Rain = 0
KME1 071624Z 17015G20KT 31/19 A3007 RMK A01 T03110192  RH  049%=      5-min Rain = 0
KME1 071625Z 17018G23KT 31/19 A3007 RMK A01 T03100193  RH  050%=      5-min Rain = 0
KME1 071626Z 17018G23KT 31/19 A3007 RMK A01 T03100193  RH  050%=      5-min Rain = 0
KME1 071627Z 18018KT 31/19 A3007 RMK A01 T03090194  RH  050%=      5-min Rain = 0
KME1 071628Z 19014KT 31/20 A3007 RMK A01 T03080195  RH  051%=      5-min Rain = 0
KME1 071629Z 18015KT 31/20 A3007 RMK A01 T03080195  RH  051%=      5-min Rain = 0
KME1 071630Z 19018G28KT 31/19 A3007 RMK A01 T03080194  RH  051%=      5-min Rain = 0
KME1 071631Z 17018KT 31/19 A3007 RMK A01 T03100193  RH  050%=      5-min Rain = 0
KME1 071632Z 18014KT 31/19 A3007 RMK A01 T03090194  RH  050%=      5-min Rain = 0
KME1 071633Z 18015KT 31/19 A3007 RMK A01 T03090194  RH  050%=      5-min Rain = 0
KME1 071634Z 18017KT 31/19 A3007 RMK A01 T03110194  RH  050%=      5-min Rain = 0
KME1 071635Z 18017KT 31/19 A3007 RMK A01 T03120194  RH  050%=      5-min Rain = 0
KME1 071636Z 18015KT 31/19 A3007 RMK A01 T03110194  RH  050%=      5-min Rain = 0
KME1 071637Z 17017G22KT 31/19 A3007 RMK A01 T03110194  RH  050%=      5-min Rain = 0
KME1 071638Z 17017KT 31/19 A3007 RMK A01 T03120194  RH  049%=      5-min Rain = 0
KME1 071639Z 17018KT 31/19 A3007 RMK A01 T03120192  RH  049%=      5-min Rain = 0
KME1 071640Z 17016KT 31/19 A3007 RMK A01 T03120191  RH  049%=      5-min Rain = 0
KME1 071641Z 17016KT 31/19 A3008 RMK A01 T03120192  RH  049%=      5-min Rain = 0
KME1 071642Z 17018G23KT 32/19 A3007 RMK A01 T03150192  RH  048%=      5-min Rain = 0
KME1 071643Z 17017G23KT 32/19 A3008 RMK A01 T03160192  RH  048%=      5-min Rain = 0
KME1 071644Z 17015KT 32/19 A3008 RMK A01 T03150192  RH  048%=      5-min Rain = 0
KME1 071645Z 17017G22KT 31/19 A3008 RMK A01 T03140192  RH  048%=      5-min Rain = 0
KME1 071646Z 17015KT 31/19 A3008 RMK A01 T03140193  RH  049%=      5-min Rain = 0
KME1 071647Z 18013G18KT 31/19 A3008 RMK A01 T03140193  RH  049%=      5-min Rain = 0
KME1 071648Z 16019KT 31/19 A3007 RMK A01 T03140193  RH  048%=      5-min Rain = 0
KME1 071649Z 17018KT 31/19 A3008 RMK A01 T03140193  RH  049%=      5-min Rain = 0
KME1 071650Z 17014KT 31/19 A3008 RMK A01 T03130193  RH  049%=      5-min Rain = 0
KME1 071651Z 17016KT 32/19 A3008 RMK A01 T03150194  RH  049%=      5-min Rain = 0
KME1 071652Z 17016KT 32/19 A3008 RMK A01 T03170192  RH  048%=      5-min Rain = 0
KME1 071653Z 17013KT 32/19 A3007 RMK A01 T03170193  RH  048%=      5-min Rain = 0
KME1 071654Z 18012KT 32/20 A3008 RMK A01 T03200195  RH  048%=      5-min Rain = 0
KME1 071655Z 17014G19KT 32/19 A3007 RMK A01 T03230194  RH  047%=      5-min Rain = 0
KME1 071656Z 17017KT 32/19 A3007 RMK A01 T03200193  RH  047%=      5-min Rain = 0
KME1 071657Z 16015KT 32/19 A3007 RMK A01 T03190192  RH  047%=      5-min Rain = 0
KME1 071658Z 17019KT 32/19 A3007 RMK A01 T03200191  RH  047%=      5-min Rain = 0
KME1 071659Z 17015KT 32/19 A3007 RMK A01 T03190191  RH  047%=      5-min Rain = 0
KME1 071700Z 17013KT 32/19 A3008 RMK A01 T03210192  RH  047%=      5-min Rain = 0
KME1 071701Z 17013KT 32/19 A3007 RMK A01 T03230192  RH  046%=      5-min Rain = 0
KME1 071702Z 16014G19KT 32/19 A3007 RMK A01 T03240191  RH  045%=      5-min Rain = 0
KME1 071703Z 17017G22KT 32/19 A3007 RMK A01 T03240191  RH  045%=      5-min Rain = 0
KME1 071704Z 17016G22KT 32/19 A3007 RMK A01 T03230191  RH  046%=      5-min Rain = 0
KME1 071705Z 17013G19KT 32/19 A3007 RMK A01 T03210191  RH  046%=      5-min Rain = 0
KME1 071706Z 17014G19KT 32/19 A3007 RMK A01 T03210192  RH  046%=      5-min Rain = 0
KME1 071707Z 16011KT 32/19 A3007 RMK A01 T03210191  RH  046%=      5-min Rain = 0
KME1 071708Z 18010KT 32/19 A3007 RMK A01 T03220192  RH  046%=      5-min Rain = 0
KME1 071709Z 17012KT 32/19 A3007 RMK A01 T03240193  RH  046%=      5-min Rain = 0
KME1 071710Z 18015KT 33/19 A3007 RMK A01 T03260194  RH  046%=      5-min Rain = 0
KME1 071711Z 19013KT 33/19 A3007 RMK A01 T03270194  RH  045%=      5-min Rain = 0
KME1 071712Z 17017KT 33/19 A3007 RMK A01 T03260192  RH  045%=      5-min Rain = 0
KME1 071713Z 17013KT 33/19 A3007 RMK A01 T03260191  RH  045%=      5-min Rain = 0
KME1 071714Z 17013KT 33/19 A3007 RMK A01 T03260192  RH  045%=      5-min Rain = 0
KME1 071715Z 15015KT 33/19 A3007 RMK A01 T03280191  RH  044%=      5-min Rain = 0
KME1 071716Z 16015KT 33/19 A3007 RMK A01 T03280191  RH  044%=      5-min Rain = 0
KME1 071717Z 18010G15KT 33/19 A3007 RMK A01 T03290193  RH  045%=      5-min Rain = 0
KME1 071718Z 18013KT 33/19 A3007 RMK A01 T03320193  RH  044%=      5-min Rain = 0
KME1 071719Z 19012KT 33/19 A3007 RMK A01 T03290191  RH  044%=      5-min Rain = 0
KME1 071720Z 21013KT 33/19 A3007 RMK A01 T03280190  RH  044%=      5-min Rain = 0
KME1 071721Z 18014KT 33/19 A3007 RMK A01 T03280191  RH  044%=      5-min Rain = 0
KME1 071722Z 17014KT 33/19 A3007 RMK A01 T03300189  RH  043%=      5-min Rain = 0
KME1 071723Z 18013KT 33/19 A3007 RMK A01 T03290189  RH  044%=      5-min Rain = 0
KME1 071724Z 18015KT 33/19 A3007 RMK A01 T03300188  RH  043%=      5-min Rain = 0
KME1 071725Z 17017KT 33/19 A3007 RMK A01 T03290187  RH  043%=      5-min Rain = 0
KME1 071726Z 18013KT 33/19 A3007 RMK A01 T03250187  RH  044%=      5-min Rain = 0
KME1 071727Z 19015KT 32/19 A3007 RMK A01 T03240186  RH  044%=      5-min Rain = 0
KME1 071728Z 18016KT 32/19 A3007 RMK A01 T03230186  RH  044%=      5-min Rain = 0
KME1 071729Z 18016KT 33/18 A3007 RMK A01 T03250184  RH  043%=      5-min Rain = 0
KME1 071730Z 18015G20KT 33/18 A3007 RMK A01 T03270184  RH  043%=      5-min Rain = 0
KME1 071731Z 17015KT 33/18 A3007 RMK A01 T03280183  RH  042%=      5-min Rain = 0
KME1 071732Z 18014KT 33/19 A3007 RMK A01 T03280185  RH  043%=      5-min Rain = 0
KME1 071733Z 17015KT 33/19 A3007 RMK A01 T03290185  RH  042%=      5-min Rain = 0
KME1 071734Z 17014KT 33/19 A3007 RMK A01 T03290185  RH  042%=      5-min Rain = 0
KME1 071735Z 18014G19KT 33/19 A3007 RMK A01 T03310186  RH  042%=      5-min Rain = 0
KME1 071736Z 18016KT 33/19 A3007 RMK A01 T03310185  RH  042%=      5-min Rain = 0
KME1 071737Z 19012G18KT 33/19 A3007 RMK A01 T03280187  RH  043%=      5-min Rain = 0
KME1 071738Z 18015KT 33/19 A3007 RMK A01 T03290188  RH  043%=      5-min Rain = 0
KME1 071739Z 18013KT 33/19 A3007 RMK A01 T03270187  RH  044%=      5-min Rain = 0
KME1 071740Z 17010KT 33/19 A3006 RMK A01 T03260188  RH  044%=      5-min Rain = 0
KME1 071741Z 20015KT 33/19 A3006 RMK A01 T03300188  RH  043%=      5-min Rain = 0
KME1 071742Z 19014KT 33/19 A3006 RMK A01 T03310187  RH  043%=      5-min Rain = 0
KME1 071743Z 18015KT 33/19 A3006 RMK A01 T03310185  RH  042%=      5-min Rain = 0
KME1 071744Z 17015G21KT 33/18 A3006 RMK A01 T03300184  RH  042%=      5-min Rain = 0
KME1 071745Z 18013KT 33/18 A3006 RMK A01 T03290184  RH  042%=      5-min Rain = 0
KME1 071746Z 19014G19KT 33/19 A3006 RMK A01 T03300186  RH  043%=      5-min Rain = 0
KME1 071747Z 19017KT 33/19 A3006 RMK A01 T03310186  RH  042%=      5-min Rain = 0
KME1 071748Z 20015KT 33/19 A3006 RMK A01 T03300185  RH  042%=      5-min Rain = 0
KME1 071749Z 19013G18KT 33/19 A3006 RMK A01 T03290185  RH  042%=      5-min Rain = 0
KME1 071750Z 18016KT 33/19 A3006 RMK A01 T03300186  RH  043%=      5-min Rain = 0
KME1 071751Z 19016G21KT 33/19 A3006 RMK A01 T03320186  RH  042%=      5-min Rain = 0
KME1 071752Z 19013KT 33/19 A3006 RMK A01 T03340186  RH  042%=      5-min Rain = 0
KME1 071753Z 19016KT 34/19 A3006 RMK A01 T03350186  RH  041%=      5-min Rain = 0
KME1 071754Z 19016G21KT 33/19 A3006 RMK A01 T03330186  RH  042%=      5-min Rain = 0
KME1 071755Z 20014G19KT 33/18 A3006 RMK A01 T03330184  RH  041%=      5-min Rain = 0
KME1 071756Z 18015G20KT 33/18 A3006 RMK A01 T03330184  RH  041%=      5-min Rain = 0
KME1 071757Z 17016G21KT 33/18 A3006 RMK A01 T03340183  RH  041%=      5-min Rain = 0
KME1 071758Z 19017KT 33/18 A3006 RMK A01 T03340182  RH  041%=      5-min Rain = 0
KME1 071759Z 19012KT 33/18 A3006 RMK A01 T03340183  RH  041%=      5-min Rain = 0
KME1 071800Z 19013G18KT 34/18 A3006 RMK A01 T03370183  RH  040%=      5-min Rain = 0
KME1 071801Z 18015KT 34/18 A3006 RMK A01 T03370184  RH  040%=      5-min Rain = 0
KME1 071802Z 19013G19KT 34/18 A3006 RMK A01 T03360183  RH  040%=      5-min Rain = 0
KME1 071803Z 18015KT 34/18 A3006 RMK A01 T03350182  RH  040%=      5-min Rain = 0
KME1 071804Z 19016KT 33/18 A3006 RMK A01 T03340181  RH  040%=      5-min Rain = 0
KME1 071805Z 18016KT 33/18 A3006 RMK A01 T03330181  RH  041%=      5-min Rain = 0
KME1 071806Z 20013KT 33/18 A3006 RMK A01 T03330182  RH  041%=      5-min Rain = 0
KME1 071807Z 17013KT 33/18 A3006 RMK A01 T03330182  RH  041%=      5-min Rain = 0
KME1 071808Z 19011KT 33/18 A3006 RMK A01 T03310182  RH  041%=      5-min Rain = 0
KME1 071809Z 16008KT 33/18 A3006 RMK A01 T03310184  RH  042%=      5-min Rain = 0
KME1 071810Z 18007KT 33/18 A3006 RMK A01 T03330184  RH  041%=      5-min Rain = 0
KME1 071811Z 17011KT 34/19 A3005 RMK A01 T03360185  RH  041%=      5-min Rain = 0
KME1 071812Z 18013KT 34/18 A3005 RMK A01 T03380184  RH  040%=      5-min Rain = 0
KME1 071813Z 18014KT 34/18 A3005 RMK A01 T03380183  RH  040%=      5-min Rain = 0
KME1 071814Z 17011KT 34/18 A3005 RMK A01 T03390183  RH  040%=      5-min Rain = 0
KME1 071815Z 20009G14KT 34/18 A3005 RMK A01 T03410183  RH  039%=      5-min Rain = 0
KME1 071816Z 19008KT 34/18 A3005 RMK A01 T03430184  RH  039%=      5-min Rain = 0
KME1 071817Z 18011KT 35/19 A3005 RMK A01 T03460186  RH  039%=      5-min Rain = 0
KME1 071818Z 19012KT 35/19 A3005 RMK A01 T03450186  RH  039%=      5-min Rain = 0
KME1 071819Z 17012KT 35/19 A3005 RMK A01 T03460186  RH  039%=      5-min Rain = 0
KME1 071820Z 17008KT 35/19 A3005 RMK A01 T03450186  RH  039%=      5-min Rain = 0
KME1 071821Z 17012KT 35/18 A3005 RMK A01 T03480184  RH  038%=      5-min Rain = 0
KME1 071822Z 16016G24KT 35/18 A3005 RMK A01 T03470182  RH  038%=      5-min Rain = 0
KME1 071823Z 17014G19KT 35/18 A3005 RMK A01 T03450182  RH  038%=      5-min Rain = 0
KME1 071824Z 17013KT 35/18 A3005 RMK A01 T03460182  RH  038%=      5-min Rain = 0
KME1 071825Z 15014KT 35/18 A3005 RMK A01 T03460180  RH  037%=      5-min Rain = 0
KME1 071826Z 16013G19KT 35/18 A3005 RMK A01 T03460180  RH  037%=      5-min Rain = 0
KME1 071827Z 17018KT 35/18 A3005 RMK A01 T03470181  RH  037%=      5-min Rain = 0
KME1 071828Z 18012G19KT 35/18 A3005 RMK A01 T03460181  RH  038%=      5-min Rain = 0
KME1 071829Z 18011KT 34/18 A3005 RMK A01 T03430183  RH  039%=      5-min Rain = 0
KME1 071830Z 19013G18KT 35/18 A3005 RMK A01 T03470182  RH  038%=      5-min Rain = 0
KME1 071831Z 19012KT 34/18 A3005 RMK A01 T03440182  RH  038%=      5-min Rain = 0
KME1 071832Z 17011G16KT 34/18 A3005 RMK A01 T03410184  RH  039%=      5-min Rain = 0
KME1 071833Z 17013KT 35/19 A3005 RMK A01 T03470185  RH  038%=      5-min Rain = 0
KME1 071834Z 16011KT 35/18 A3005 RMK A01 T03510183  RH  037%=      5-min Rain = 0
KME1 071835Z 15010KT 35/18 A3005 RMK A01 T03490181  RH  037%=      5-min Rain = 0
KME1 071836Z 18010KT 35/18 A3005 RMK A01 T03470183  RH  038%=      5-min Rain = 0
KME1 071837Z 20012KT 35/18 A3005 RMK A01 T03500181  RH  037%=      5-min Rain = 0
KME1 071838Z 17012KT 35/18 A3005 RMK A01 T03500179  RH  036%=      5-min Rain = 0
KME1 071839Z 15011KT 35/18 A3005 RMK A01 T03450177  RH  037%=      5-min Rain = 0
KME1 071840Z 16015G20KT 35/18 A3005 RMK A01 T03480180  RH  037%=      5-min Rain = 0
KME1 071841Z 17016G21KT 35/18 A3005 RMK A01 T03500181  RH  037%=      5-min Rain = 0
KME1 071842Z 16015KT 35/18 A3005 RMK A01 T03480181  RH  037%=      5-min Rain = 0
KME1 071843Z 16013KT 35/18 A3005 RMK A01 T03480180  RH  037%=      5-min Rain = 0
KME1 071844Z 17014KT 35/18 A3005 RMK A01 T03460178  RH  037%=      5-min Rain = 0
KME1 071845Z 17015KT 35/18 A3005 RMK A01 T03470178  RH  037%=      5-min Rain = 0
KME1 071846Z 16012KT 35/18 A3005 RMK A01 T03460178  RH  037%=      5-min Rain = 0
KME1 071847Z 15014KT 35/18 A3005 RMK A01 T03460177  RH  037%=      5-min Rain = 0
KME1 071848Z 14014KT 35/18 A3005 RMK A01 T03480177  RH  036%=      5-min Rain = 0
KME1 071849Z 15012KT 35/18 A3005 RMK A01 T03480176  RH  036%=      5-min Rain = 0
KME1 071850Z 17011G16KT 35/18 A3005 RMK A01 T03470178  RH  037%=      5-min Rain = 0
KME1 071851Z 17013G20KT 35/18 A3005 RMK A01 T03540180  RH  036%=      5-min Rain = 0
KME1 071852Z 18011KT 36/18 A3005 RMK A01 T03580180  RH  035%=      5-min Rain = 0
KME1 071853Z 19014KT 36/18 A3005 RMK A01 T03590178  RH  035%=      5-min Rain = 0
KME1 071854Z 19014KT 35/18 A3004 RMK A01 T03530178  RH  036%=      5-min Rain = 0
KME1 071855Z 20014G19KT 35/18 A3004 RMK A01 T03500177  RH  036%=      5-min Rain = 0
KME1 071856Z 18012G17KT 35/18 A3004 RMK A01 T03500177  RH  036%=      5-min Rain = 0
KME1 071857Z 16014G19KT 36/18 A3004 RMK A01 T03560179  RH  035%=      5-min Rain = 0
KME1 071858Z 17017KT 36/18 A3004 RMK A01 T03600176  RH  034%=      5-min Rain = 0
KME1 071859Z 18012KT 35/17 A3004 RMK A01 T03530174  RH  035%=      5-min Rain = 0
KME1 071900Z 16011KT 35/17 A3004 RMK A01 T03510174  RH  035%=      5-min Rain = 0
KME1 071901Z 17010KT 35/18 A3004 RMK A01 T03530175  RH  035%=      5-min Rain = 0
KME1 071902Z 17013KT 36/18 A3004 RMK A01 T03560176  RH  035%=      5-min Rain = 0
KME1 071903Z 17013KT 35/18 A3004 RMK A01 T03540177  RH  035%=      5-min Rain = 0
KME1 071904Z 19011KT 35/18 A3004 RMK A01 T03520176  RH  035%=      5-min Rain = 0
KME1 071905Z 17011G17KT 35/18 A3004 RMK A01 T03520177  RH  035%=      5-min Rain = 0
KME1 071906Z 17014KT 35/18 A3004 RMK A01 T03540177  RH  035%=      5-min Rain = 0
KME1 071907Z 16013KT 35/18 A3004 RMK A01 T03530178  RH  035%=      5-min Rain = 0
KME1 071908Z 15013KT 35/18 A3004 RMK A01 T03540179  RH  036%=      5-min Rain = 0
KME1 071909Z 15013KT 36/18 A3004 RMK A01 T03550178  RH  035%=      5-min Rain = 0
KME1 071910Z 14009KT 36/18 A3004 RMK A01 T03550178  RH  035%=      5-min Rain = 0
KME1 071911Z 15008KT 36/18 A3004 RMK A01 T03550179  RH  035%=      5-min Rain = 0
KME1 071912Z 16010KT 36/18 A3004 RMK A01 T03610180  RH  035%=      5-min Rain = 0
KME1 071913Z 16010KT 36/18 A3004 RMK A01 T03640179  RH  034%=      5-min Rain = 0
KME1 071914Z 18009G14KT 36/18 A3004 RMK A01 T03600177  RH  034%=      5-min Rain = 0
KME1 071915Z 17015KT 36/18 A3004 RMK A01 T03590177  RH  034%=      5-min Rain = 0
KME1 071916Z 18016KT 36/17 A3004 RMK A01 T03600174  RH  034%=      5-min Rain = 0
KME1 071917Z 17016KT 36/17 A3004 RMK A01 T03560174  RH  034%=      5-min Rain = 0
KME1 071918Z 18013KT 35/17 A3004 RMK A01 T03520174  RH  035%=      5-min Rain = 0
KME1 071919Z 17009KT 35/18 A3004 RMK A01 T03530175  RH  035%=      5-min Rain = 0
KME1 071920Z 19011G16KT 36/18 A3004 RMK A01 T03580176  RH  034%=      5-min Rain = 0
KME1 071921Z 20014KT 36/18 A3003 RMK A01 T03610176  RH  034%=      5-min Rain = 0
KME1 071922Z 20013KT 36/18 A3003 RMK A01 T03580175  RH  034%=      5-min Rain = 0
KME1 071923Z 20013G18KT 36/17 A3003 RMK A01 T03570174  RH  034%=      5-min Rain = 0
KME1 071924Z 20012G20KT 36/17 A3003 RMK A01 T03580174  RH  034%=      5-min Rain = 0
KME1 071925Z 16017G23KT 36/17 A3003 RMK A01 T03580174  RH  034%=      5-min Rain = 0
KME1 071926Z 15018G23KT 36/17 A3003 RMK A01 T03610173  RH  033%=      5-min Rain = 0
KME1 071927Z 16017KT 36/17 A3003 RMK A01 T03570173  RH  034%=      5-min Rain = 0
KME1 071928Z 17016KT 36/17 A3003 RMK A01 T03550173  RH  034%=      5-min Rain = 0
KME1 071929Z 17013KT 35/17 A3003 RMK A01 T03530173  RH  034%=      5-min Rain = 0
KME1 071930Z 18011KT 35/17 A3003 RMK A01 T03520173  RH  035%=      5-min Rain = 0
KME1 071931Z 16015G20KT 36/17 A3003 RMK A01 T03550173  RH  034%=      5-min Rain = 0
KME1 071932Z 17014G21KT 36/17 A3003 RMK A01 T03550173  RH  034%=      5-min Rain = 0
KME1 071933Z 18014KT 36/17 A3003 RMK A01 T03560174  RH  034%=      5-min Rain = 0
KME1 071934Z 17015KT 36/18 A3003 RMK A01 T03570175  RH  034%=      5-min Rain = 0
KME1 071935Z 17012KT 36/18 A3003 RMK A01 T03640176  RH  033%=      5-min Rain = 0
KME1 071936Z 16014KT 37/17 A3003 RMK A01 T03670174  RH  032%=      5-min Rain = 0
KME1 071937Z 16015KT 36/17 A3003 RMK A01 T03630172  RH  032%=      5-min Rain = 0
KME1 071938Z 16012KT 36/17 A3003 RMK A01 T03610172  RH  033%=      5-min Rain = 0
KME1 071939Z 16009KT 36/17 A3003 RMK A01 T03590172  RH  033%=      5-min Rain = 0
KME1 071940Z 16011KT 36/17 A3003 RMK A01 T03600171  RH  033%=      5-min Rain = 0
KME1 071941Z 16009KT 36/17 A3003 RMK A01 T03590168  RH  032%=      5-min Rain = 0
KME1 071942Z 17011KT 36/17 A3003 RMK A01 T03600170  RH  033%=      5-min Rain = 0
KME1 071943Z 17012G18KT 36/17 A3003 RMK A01 T03620173  RH  033%=      5-min Rain = 0
KME1 071944Z 16011G17KT 36/18 A3003 RMK A01 T03620175  RH  033%=      5-min Rain = 0
KME1 071945Z 15013G20KT 36/18 A3003 RMK A01 T03610175  RH  033%=      5-min Rain = 0
KME1 071946Z 15016KT 36/17 A3003 RMK A01 T03600174  RH  033%=      5-min Rain = 0
KME1 071947Z 16013KT 36/17 A3003 RMK A01 T03610172  RH  033%=      5-min Rain = 0
KME1 071948Z 16014KT 36/17 A3003 RMK A01 T03610171  RH  033%=      5-min Rain = 0
KME1 071949Z 16013KT 36/17 A3003 RMK A01 T03580170  RH  033%=      5-min Rain = 0
KME1 071950Z 15013KT 36/17 A3003 RMK A01 T03560171  RH  033%=      5-min Rain = 0
KME1 071951Z 17011KT 36/17 A3003 RMK A01 T03560170  RH  033%=      5-min Rain = 0
KME1 071952Z 18012KT 36/17 A3003 RMK A01 T03570172  RH  034%=      5-min Rain = 0
KME1 071953Z 18011KT 36/17 A3003 RMK A01 T03600168  RH  032%=      5-min Rain = 0
KME1 071954Z 18013G18KT 36/17 A3003 RMK A01 T03640168  RH  032%=      5-min Rain = 0
KME1 071955Z 17014KT 36/17 A3003 RMK A01 T03640170  RH  032%=      5-min Rain = 0
KME1 071956Z 17014KT 36/17 A3003 RMK A01 T03620171  RH  032%=      5-min Rain = 0
KME1 071957Z 18014KT 36/17 A3003 RMK A01 T03610171  RH  033%=      5-min Rain = 0
KME1 071958Z 17010KT 36/17 A3003 RMK A01 T03570172  RH  034%=      5-min Rain = 0
KME1 071959Z 17012KT 35/17 A3003 RMK A01 T03530174  RH  035%=      5-min Rain = 0
KME1 072000Z 17010KT 36/18 A3003 RMK A01 T03560175  RH  035%=      5-min Rain = 0
KME1 072001Z 17011KT 36/18 A3003 RMK A01 T03580175  RH  034%=      5-min Rain = 0
KME1 072002Z 17009G14KT 36/18 A3003 RMK A01 T03600175  RH  034%=      5-min Rain = 0
KME1 072003Z 17009KT 36/17 A3002 RMK A01 T03600174  RH  033%=      5-min Rain = 0
KME1 072004Z 13011KT 36/18 A3002 RMK A01 T03610175  RH  033%=      5-min Rain = 0
KME1 072005Z 13011KT 37/18 A3002 RMK A01 T03660175  RH  033%=      5-min Rain = 0
KME1 072006Z 15010KT 37/17 A3002 RMK A01 T03670174  RH  032%=      5-min Rain = 0
KME1 072007Z 18011KT 37/17 A3002 RMK A01 T03670173  RH  032%=      5-min Rain = 0
KME1 072008Z 17010KT 37/17 A3002 RMK A01 T03680171  RH  031%=      5-min Rain = 0
KME1 072009Z 18013G18KT 37/17 A3002 RMK A01 T03670171  RH  032%=      5-min Rain = 0
KME1 072010Z 18013KT 37/17 A3002 RMK A01 T03670170  RH  031%=      5-min Rain = 0
KME1 072011Z 17013KT 37/17 A3002 RMK A01 T03650168  RH  031%=      5-min Rain = 0
KME1 072012Z 18008G13KT 36/17 A3002 RMK A01 T03630166  RH  031%=      5-min Rain = 0
KME1 072013Z 17013G18KT 36/17 A3002 RMK A01 T03610167  RH  032%=      5-min Rain = 0
KME1 072014Z 19016KT 36/17 A3002 RMK A01 T03600168  RH  032%=      5-min Rain = 0
KME1 072015Z 19017KT 36/17 A3002 RMK A01 T03610166  RH  032%=      5-min Rain = 0
KME1 072016Z 19013KT 36/16 A3002 RMK A01 T03590164  RH  032%=      5-min Rain = 0
KME1 072017Z 18011KT 36/17 A3002 RMK A01 T03590165  RH  032%=      5-min Rain = 0
KME1 072018Z 18011KT 36/17 A3002 RMK A01 T03610167  RH  032%=      5-min Rain = 0
KME1 072019Z 18008KT 36/17 A3002 RMK A01 T03600165  RH  032%=      5-min Rain = 0
KME1 072020Z 18013KT 36/17 A3002 RMK A01 T03600167  RH  032%=      5-min Rain = 0
KME1 072021Z 18014G19KT 36/17 A3002 RMK A01 T03620169  RH  032%=      5-min Rain = 0
KME1 072022Z 16014G20KT 36/17 A3002 RMK A01 T03630170  RH  032%=      5-min Rain = 0
KME1 072023Z 15015KT 37/17 A3002 RMK A01 T03650168  RH  031%=      5-min Rain = 0
KME1 072024Z 15013KT 37/17 A3002 RMK A01 T03650167  RH  031%=      5-min Rain = 0
KME1 072025Z 15007KT 36/17 A3002 RMK A01 T03610166  RH  032%=      5-min Rain = 0
KME1 072026Z 17009KT 36/17 A3002 RMK A01 T03630165  RH  031%=      5-min Rain = 0
KME1 072027Z 18009KT 37/16 A3002 RMK A01 T03670162  RH  030%=      5-min Rain = 0
KME1 072028Z 16010KT 37/16 A3002 RMK A01 T03650163  RH  030%=      5-min Rain = 0
KME1 072029Z 14011KT 37/16 A3002 RMK A01 T03670162  RH  030%=      5-min Rain = 0
KME1 072030Z 15012KT 37/16 A3002 RMK A01 T03650164  RH  031%=      5-min Rain = 0
KME1 072031Z 15012KT 37/17 A3002 RMK A01 T03650165  RH  031%=      5-min Rain = 0
KME1 072032Z 13010KT 36/16 A3002 RMK A01 T03630163  RH  031%=      5-min Rain = 0
KME1 072033Z 14013KT 36/16 A3002 RMK A01 T03610163  RH  031%=      5-min Rain = 0
KME1 072034Z 16012KT 36/16 A3002 RMK A01 T03620164  RH  031%=      5-min Rain = 0
KME1 072035Z 16012KT 36/16 A3002 RMK A01 T03640163  RH  030%=      5-min Rain = 0
KME1 072036Z 16008KT 37/17 A3002 RMK A01 T03660165  RH  030%=      5-min Rain = 0
KME1 072037Z 15014KT 37/17 A3002 RMK A01 T03690166  RH  030%=      5-min Rain = 0
KME1 072038Z 13012KT 37/16 A3002 RMK A01 T03660162  RH  030%=      5-min Rain = 0
KME1 072039Z 14008G14KT 36/16 A3002 RMK A01 T03610158  RH  030%=      5-min Rain = 0
KME1 072040Z 20011G18KT 36/16 A3001 RMK A01 T03590160  RH  031%=      5-min Rain = 0
KME1 072041Z 18014KT 36/16 A3002 RMK A01 T03630161  RH  030%=      5-min Rain = 0
KME1 072042Z 18011KT 37/16 A3002 RMK A01 T03650160  RH  030%=      5-min Rain = 0
KME1 072043Z 19008KT 37/16 A3002 RMK A01 T03670160  RH  030%=      5-min Rain = 0
KME1 072044Z 19008KT 36/16 A3002 RMK A01 T03630160  RH  030%=      5-min Rain = 0
KME1 072045Z 18010G17KT 36/16 A3002 RMK A01 T03640161  RH  030%=      5-min Rain = 0
KME1 072046Z 18012G17KT 37/16 A3002 RMK A01 T03660164  RH  030%=      5-min Rain = 0
KME1 072047Z 19012KT 37/17 A3001 RMK A01 T03660166  RH  031%=      5-min Rain = 0
KME1 072048Z 17014KT 37/17 A3001 RMK A01 T03650166  RH  031%=      5-min Rain = 0
KME1 072049Z 17016KT 36/17 A3001 RMK A01 T03630166  RH  031%=      5-min Rain = 0
KME1 072050Z 15014KT 36/17 A3002 RMK A01 T03640166  RH  031%=      5-min Rain = 0
KME1 072051Z 15011KT 37/17 A3002 RMK A01 T03650165  RH  031%=      5-min Rain = 0
KME1 072052Z 17012KT 37/17 A3002 RMK A01 T03670167  RH  031%=      5-min Rain = 0
KME1 072053Z 18013KT 37/17 A3002 RMK A01 T03670166  RH  031%=      5-min Rain = 0
KME1 072054Z 17012KT 36/17 A3001 RMK A01 T03640165  RH  031%=      5-min Rain = 0
KME1 072055Z 17009KT 36/16 A3001 RMK A01 T03640163  RH  031%=      5-min Rain = 0
KME1 072056Z 17013KT 36/16 A3001 RMK A01 T03640163  RH  030%=      5-min Rain = 0
KME1 072057Z 19010KT 36/16 A3001 RMK A01 T03630162  RH  030%=      5-min Rain = 0
KME1 072058Z 20011G16KT 36/16 A3001 RMK A01 T03610162  RH  031%=      5-min Rain = 0
KME1 072059Z 19015KT 36/16 A3001 RMK A01 T03610160  RH  030%=      5-min Rain = 0
KME1 072100Z 18011KT 36/16 A3001 RMK A01 T03620161  RH  030%=      5-min Rain = 0
KME1 072101Z 18016G21KT 36/16 A3001 RMK A01 T03640163  RH  030%=      5-min Rain = 0
KME1 072102Z 18014KT 36/16 A3001 RMK A01 T03640164  RH  031%=      5-min Rain = 0
KME1 072103Z 17010KT 36/16 A3001 RMK A01 T03640162  RH  030%=      5-min Rain = 0
KME1 072104Z 18010KT 36/16 A3001 RMK A01 T03630164  RH  031%=      5-min Rain = 0
KME1 072105Z 18011KT 36/17 A3001 RMK A01 T03640165  RH  031%=      5-min Rain = 0
KME1 072106Z 17008KT 37/17 A3001 RMK A01 T03680165  RH  030%=      5-min Rain = 0
KME1 072107Z 15008KT 37/16 A3001 RMK A01 T03700164  RH  030%=      5-min Rain = 0
KME1 072108Z 14010KT 37/16 A3001 RMK A01 T03700163  RH  029%=      5-min Rain = 0
KME1 072109Z 17012KT 37/16 A3001 RMK A01 T03720164  RH  029%=      5-min Rain = 0
KME1 072110Z 17012KT 37/16 A3001 RMK A01 T03710162  RH  029%=      5-min Rain = 0
KME1 072111Z 18010KT 37/16 A3001 RMK A01 T03670161  RH  030%=      5-min Rain = 0
KME1 072112Z 18010KT 37/16 A3001 RMK A01 T03650161  RH  030%=      5-min Rain = 0
KME1 072113Z 17008KT 37/16 A3001 RMK A01 T03670160  RH  030%=      5-min Rain = 0
KME1 072114Z 15014KT 37/16 A3001 RMK A01 T03700161  RH  029%=      5-min Rain = 0
KME1 072115Z 14013KT 37/16 A3001 RMK A01 T03680162  RH  030%=      5-min Rain = 0
KME1 072116Z 15013KT 37/16 A3001 RMK A01 T03670163  RH  030%=      5-min Rain = 0
KME1 072117Z 17011KT 37/16 A3001 RMK A01 T03670159  RH  029%=      5-min Rain = 0
KME1 072118Z 14010KT 37/16 A3001 RMK A01 T03670160  RH  029%=      5-min Rain = 0
KME1 072119Z 16008KT 37/16 A3001 RMK A01 T03670161  RH  030%=      5-min Rain = 0
KME1 072120Z 17009KT 37/16 A30 RMK A01 T03670161  RH  030%=      5-min Rain = 0
KME1 072121Z 18009KT 37/16 A30 RMK A01 T03680161  RH  029%=      5-min Rain = 0
KME1 072122Z 19010G15KT 37/16 A30 RMK A01 T03670160  RH  029%=      5-min Rain = 0
KME1 072123Z 18013KT 37/16 A30 RMK A01 T03690160  RH  029%=      5-min Rain = 0
KME1 072124Z 18012KT 37/16 A30 RMK A01 T03680157  RH  029%=      5-min Rain = 0
KME1 072125Z 18008KT 37/16 A30 RMK A01 T03650157  RH  029%=      5-min Rain = 0
KME1 072126Z 18007KT 37/16 A30 RMK A01 T03670158  RH  029%=      5-min Rain = 0
KME1 072127Z 18010KT 37/16 A30 RMK A01 T03700158  RH  029%=      5-min Rain = 0
KME1 072128Z 18014G19KT 37/16 A30 RMK A01 T03720159  RH  028%=      5-min Rain = 0
KME1 072129Z 17015KT 37/16 A30 RMK A01 T03740155  RH  027%=      5-min Rain = 0
KME1 072130Z 15014G19KT 37/15 A30 RMK A01 T03720154  RH  028%=      5-min Rain = 0
KME1 072131Z 16012G19KT 37/15 A30 RMK A01 T03670153  RH  028%=      5-min Rain = 0
KME1 072132Z 17014G19KT 37/16 A30 RMK A01 T03660157  RH  029%=      5-min Rain = 0
KME1 072133Z 16014KT 37/16 A30 RMK A01 T03690158  RH  029%=      5-min Rain = 0
KME1 072134Z 16014KT 37/16 A30 RMK A01 T03700158  RH  029%=      5-min Rain = 0
KME1 072135Z 16011KT 37/16 A30 RMK A01 T03690158  RH  029%=      5-min Rain = 0
KME1 072136Z 18007KT 37/16 A30 RMK A01 T03680158  RH  029%=      5-min Rain = 0
KME1 072137Z 20006KT 37/16 A30 RMK A01 T03670157  RH  029%=      5-min Rain = 0
KME1 072138Z 17007G15KT 37/16 A30 RMK A01 T03660158  RH  029%=      5-min Rain = 0
KME1 072139Z 17010G16KT 37/15 A30 RMK A01 T03690154  RH  028%=      5-min Rain = 0
KME1 072140Z 14009KT 37/15 A30 RMK A01 T03670154  RH  028%=      5-min Rain = 0
KME1 072141Z 15011KT 37/15 A30 RMK A01 T03690154  RH  028%=      5-min Rain = 0
KME1 072142Z 15013KT 37/15 A30 RMK A01 T03700153  RH  028%=      5-min Rain = 0
KME1 072143Z 16012G18KT 37/15 A30 RMK A01 T03700152  RH  028%=      5-min Rain = 0
KME1 072144Z 16012G18KT 37/15 A30 RMK A01 T03710151  RH  027%=      5-min Rain = 0
KME1 072145Z 17014KT 37/15 A30 RMK A01 T03720151  RH  027%=      5-min Rain = 0
KME1 072146Z 17013KT 37/15 A30 RMK A01 T03710147  RH  026%=      5-min Rain = 0
KME1 072147Z 17012KT 37/15 A30 RMK A01 T03690145  RH  026%=      5-min Rain = 0
KME1 072148Z 18011G16KT 37/15 A30 RMK A01 T03670146  RH  027%=      5-min Rain = 0
KME1 072149Z 18012KT 37/15 A30 RMK A01 T03680150  RH  027%=      5-min Rain = 0
KME1 072150Z 18008KT 37/15 A30 RMK A01 T03650151  RH  028%=      5-min Rain = 0
KME1 072151Z 19010KT 37/15 A2999 RMK A01 T03650151  RH  028%=      5-min Rain = 0
KME1 072152Z 18006KT 37/15 A2999 RMK A01 T03650148  RH  027%=      5-min Rain = 0
KME1 072153Z 17011KT 37/15 A2999 RMK A01 T03650150  RH  028%=      5-min Rain = 0
KME1 072154Z 17012KT 37/15 A2999 RMK A01 T03670148  RH  027%=      5-min Rain = 0
KME1 072155Z 14012G20KT 37/15 A2999 RMK A01 T03660147  RH  027%=      5-min Rain = 0
KME1 072156Z 15015KT 37/15 A2999 RMK A01 T03660146  RH  027%=      5-min Rain = 0
KME1 072157Z 16012KT 37/14 A30 RMK A01 T03660144  RH  027%=      5-min Rain = 0
KME1 072158Z 18009KT 37/14 A30 RMK A01 T03660142  RH  026%=      5-min Rain = 0
KME1 072159Z 19007KT 37/14 A2999 RMK A01 T03650143  RH  027%=      5-min Rain = 0
KME1 072200Z 18011G16KT 37/14 A2999 RMK A01 T03660143  RH  027%=      5-min Rain = 0
KME1 072201Z 17012KT 37/14 A2999 RMK A01 T03670143  RH  026%=      5-min Rain = 0
KME1 072202Z 17013KT 37/14 A2999 RMK A01 T03680142  RH  026%=      5-min Rain = 0
KME1 072203Z 16011KT 37/14 A2999 RMK A01 T03680144  RH  026%=      5-min Rain = 0
KME1 072204Z 17011KT 37/15 A2999 RMK A01 T03700148  RH  027%=      5-min Rain = 0
KME1 072205Z 16011KT 37/15 A2999 RMK A01 T03730147  RH  026%=      5-min Rain = 0
KME1 072206Z 16011KT 37/15 A2999 RMK A01 T03740145  RH  026%=      5-min Rain = 0
KME1 072207Z 15009KT 37/15 A2999 RMK A01 T03730146  RH  026%=      5-min Rain = 0
KME1 072208Z 14011KT 37/15 A2999 RMK A01 T03700147  RH  027%=      5-min Rain = 0
KME1 072209Z 15012KT 37/15 A2999 RMK A01 T03690148  RH  027%=      5-min Rain = 0
KME1 072210Z 14013KT 37/15 A2999 RMK A01 T03690150  RH  027%=      5-min Rain = 0
KME1 072211Z 13010KT 37/15 A2999 RMK A01 T03680149  RH  027%=      5-min Rain = 0
KME1 072212Z 13010KT 37/15 A2999 RMK A01 T03660149  RH  028%=      5-min Rain = 0
KME1 072213Z 15011KT 37/15 A2999 RMK A01 T03660150  RH  028%=      5-min Rain = 0
KME1 072214Z 15010KT 37/15 A2999 RMK A01 T03670148  RH  027%=      5-min Rain = 0
KME1 072215Z 16013KT 37/15 A2999 RMK A01 T03680148  RH  027%=      5-min Rain = 0
KME1 072216Z 14010KT 37/15 A2999 RMK A01 T03690146  RH  027%=      5-min Rain = 0
KME1 072217Z 13011KT 37/14 A2999 RMK A01 T03690143  RH  026%=      5-min Rain = 0
KME1 072218Z 15010KT 37/14 A2999 RMK A01 T03690143  RH  026%=      5-min Rain = 0
KME1 072219Z 15010KT 37/14 A2999 RMK A01 T03680143  RH  026%=      5-min Rain = 0
KME1 072220Z 14011G17KT 37/14 A2999 RMK A01 T03700144  RH  026%=      5-min Rain = 0
KME1 072221Z 15011KT 37/15 A2999 RMK A01 T03720147  RH  026%=      5-min Rain = 0
KME1 072222Z 14014G19KT 37/15 A2999 RMK A01 T03700149  RH  027%=      5-min Rain = 0
KME1 072223Z 14012KT 37/15 A2999 RMK A01 T03680149  RH  027%=      5-min Rain = 0
KME1 072224Z 15009KT 37/15 A2999 RMK A01 T03680149  RH  027%=      5-min Rain = 0
KME1 072225Z 15012KT 37/15 A2999 RMK A01 T03690149  RH  027%=      5-min Rain = 0
KME1 072226Z 16011KT 37/15 A2999 RMK A01 T03690147  RH  027%=      5-min Rain = 0
KME1 072227Z 14013KT 37/15 A2999 RMK A01 T03680145  RH  027%=      5-min Rain = 0
KME1 072228Z 13012G17KT 37/14 A2999 RMK A01 T03670143  RH  026%=      5-min Rain = 0
KME1 072229Z 13013KT 37/14 A2999 RMK A01 T03660143  RH  027%=      5-min Rain = 0
KME1 072230Z 14010KT 37/14 A2999 RMK A01 T03650144  RH  027%=      5-min Rain = 0
KME1 072231Z 13013KT 37/14 A2999 RMK A01 T03670144  RH  027%=      5-min Rain = 0
KME1 072232Z 12014KT 37/14 A2999 RMK A01 T03680144  RH  026%=      5-min Rain = 0
KME1 072233Z 15013KT 37/14 A2999 RMK A01 T03670144  RH  026%=      5-min Rain = 0
KME1 072234Z 16014KT 37/15 A2999 RMK A01 T03680145  RH  027%=      5-min Rain = 0
KME1 072235Z 17011KT 37/14 A2999 RMK A01 T03690144  RH  026%=      5-min Rain = 0
KME1 072236Z 16010KT 37/14 A2999 RMK A01 T03690143  RH  026%=      5-min Rain = 0
KME1 072237Z 15009KT 37/14 A2999 RMK A01 T03680143  RH  026%=      5-min Rain = 0
KME1 072238Z 16010KT 37/14 A2999 RMK A01 T03670143  RH  026%=      5-min Rain = 0
KME1 072239Z 15009KT 37/14 A2999 RMK A01 T03670144  RH  026%=      5-min Rain = 0
KME1 072240Z 15010KT 37/15 A2999 RMK A01 T03680146  RH  027%=      5-min Rain = 0
KME1 072241Z 18009G14KT 37/15 A2999 RMK A01 T03700148  RH  027%=      5-min Rain = 0
KME1 072242Z 18011KT 37/15 A2999 RMK A01 T03710147  RH  027%=      5-min Rain = 0
KME1 072243Z 17009KT 37/15 A2999 RMK A01 T03700147  RH  027%=      5-min Rain = 0
KME1 072244Z 18009KT 37/15 A2999 RMK A01 T03710149  RH  027%=      5-min Rain = 0
KME1 072245Z 16009KT 37/15 A2999 RMK A01 T03730148  RH  026%=      5-min Rain = 0
KME1 072246Z 16011KT 37/15 A2999 RMK A01 T03740148  RH  026%=      5-min Rain = 0
KME1 072247Z 18013KT 37/15 A2999 RMK A01 T03740148  RH  026%=      5-min Rain = 0
KME1 072248Z 15012KT 37/15 A2999 RMK A01 T03710147  RH  026%=      5-min Rain = 0
KME1 072249Z 15011KT 37/15 A2999 RMK A01 T03690146  RH  027%=      5-min Rain = 0
KME1 072250Z 15014KT 37/15 A2999 RMK A01 T03690146  RH  027%=      5-min Rain = 0
KME1 072251Z 16009KT 37/14 A2999 RMK A01 T03690144  RH  026%=      5-min Rain = 0
KME1 072252Z 15009G15KT 37/15 A2999 RMK A01 T03700145  RH  026%=      5-min Rain = 0
KME1 072253Z 14011KT 37/15 A2999 RMK A01 T03730147  RH  026%=      5-min Rain = 0
KME1 072254Z 15011KT 37/15 A2999 RMK A01 T03720146  RH  026%=      5-min Rain = 0
KME1 072255Z 16010G16KT 37/15 A2999 RMK A01 T03710146  RH  026%=      5-min Rain = 0
KME1 072256Z 16011G16KT 37/15 A2999 RMK A01 T03710145  RH  026%=      5-min Rain = 0
KME1 072257Z 15011KT 37/14 A2999 RMK A01 T03710144  RH  026%=      5-min Rain = 0
KME1 072258Z 17008KT 37/14 A2999 RMK A01 T03690143  RH  026%=      5-min Rain = 0
KME1 072259Z 14008KT 37/14 A2999 RMK A01 T03690142  RH  026%=      5-min Rain = 0
KME1 072300Z 16008KT 37/14 A2998 RMK A01 T03690144  RH  026%=      5-min Rain = 0
KME1 072301Z 15011KT 37/15 A2999 RMK A01 T03710145  RH  026%=      5-min Rain = 0
KME1 072302Z 15010KT 37/15 A2999 RMK A01 T03700145  RH  026%=      5-min Rain = 0
KME1 072303Z 15009KT 37/15 A2999 RMK A01 T03690145  RH  026%=      5-min Rain = 0
KME1 072304Z 14014G20KT 37/15 A2999 RMK A01 T03680146  RH  027%=      5-min Rain = 0
KME1 072305Z 14014KT 37/15 A2999 RMK A01 T03670146  RH  027%=      5-min Rain = 0
KME1 072306Z 15014KT 37/15 A2999 RMK A01 T03650146  RH  027%=      5-min Rain = 0
KME1 072307Z 14010KT 36/15 A2999 RMK A01 T03640145  RH  027%=      5-min Rain = 0
KME1 072308Z 14011KT 36/15 A2999 RMK A01 T03640145  RH  027%=      5-min Rain = 0
KME1 072309Z 17011KT 36/15 A2998 RMK A01 T03640146  RH  027%=      5-min Rain = 0
KME1 072310Z 17008KT 37/15 A2998 RMK A01 T03650146  RH  027%=      5-min Rain = 0
KME1 072311Z 15006KT 37/15 A2998 RMK A01 T03650147  RH  027%=      5-min Rain = 0
KME1 072312Z 16007KT 37/15 A2998 RMK A01 T03680148  RH  027%=      5-min Rain = 0
KME1 072313Z 15008KT 37/15 A2998 RMK A01 T03690147  RH  027%=      5-min Rain = 0
KME1 072314Z 13011KT 37/15 A2998 RMK A01 T03690147  RH  027%=      5-min Rain = 0
KME1 072315Z 15009KT 37/15 A2998 RMK A01 T03670147  RH  027%=      5-min Rain = 0
KME1 072316Z 16010KT 37/15 A2998 RMK A01 T03660147  RH  027%=      5-min Rain = 0
KME1 072317Z 17011KT 37/14 A2998 RMK A01 T03670143  RH  026%=      5-min Rain = 0
KME1 072318Z 17013KT 37/14 A2998 RMK A01 T03680142  RH  026%=      5-min Rain = 0
KME1 072319Z 16014G19KT 37/14 A2998 RMK A01 T03670143  RH  026%=      5-min Rain = 0
KME1 072320Z 16012KT 37/15 A2998 RMK A01 T03660145  RH  027%=      5-min Rain = 0
KME1 072321Z 16013KT 37/15 A2998 RMK A01 T03660145  RH  027%=      5-min Rain = 0
KME1 072322Z 15013KT 37/15 A2998 RMK A01 T03650147  RH  027%=      5-min Rain = 0
KME1 072323Z 15013G19KT 37/15 A2998 RMK A01 T03650148  RH  028%=      5-min Rain = 0
KME1 072324Z 15015KT 36/15 A2998 RMK A01 T03630148  RH  028%=      5-min Rain = 0
KME1 072325Z 16016KT 36/15 A2998 RMK A01 T03620149  RH  028%=      5-min Rain = 0
KME1 072326Z 18013KT 36/15 A2998 RMK A01 T03610149  RH  028%=      5-min Rain = 0
KME1 072327Z 18012KT 36/15 A2998 RMK A01 T03610149  RH  028%=      5-min Rain = 0
KME1 072328Z 18010KT 36/15 A2998 RMK A01 T03620149  RH  028%=      5-min Rain = 0
KME1 072329Z 18007KT 36/15 A2998 RMK A01 T03610149  RH  028%=      5-min Rain = 0
KME1 072330Z 19006KT 36/15 A2998 RMK A01 T03620147  RH  028%=      5-min Rain = 0
KME1 072331Z 17009KT 36/15 A2998 RMK A01 T03640146  RH  027%=      5-min Rain = 0
KME1 072332Z 17011KT 37/15 A2998 RMK A01 T03650146  RH  027%=      5-min Rain = 0
KME1 072333Z 14009KT 37/15 A2998 RMK A01 T03650148  RH  027%=      5-min Rain = 0
KME1 072334Z 15011KT 37/15 A2998 RMK A01 T03650149  RH  028%=      5-min Rain = 0
KME1 072335Z 15009KT 37/15 A2998 RMK A01 T03660149  RH  028%=      5-min Rain = 0
KME1 072336Z 14009KT 37/15 A2998 RMK A01 T03650149  RH  028%=      5-min Rain = 0
KME1 072337Z 15012G17KT 37/15 A2998 RMK A01 T03650149  RH  028%=      5-min Rain = 0
KME1 072338Z 16014G19KT 36/15 A2998 RMK A01 T03640148  RH  028%=      5-min Rain = 0
KME1 072339Z 14009KT 36/15 A2998 RMK A01 T03630147  RH  028%=      5-min Rain = 0
KME1 072340Z 13010KT 36/15 A2998 RMK A01 T03640148  RH  028%=      5-min Rain = 0
KME1 072341Z 13010KT 36/15 A2998 RMK A01 T03640147  RH  027%=      5-min Rain = 0
KME1 072342Z 14011G16KT 36/15 A2998 RMK A01 T03620146  RH  028%=      5-min Rain = 0
KME1 072343Z 15013KT 36/15 A2998 RMK A01 T03610147  RH  028%=      5-min Rain = 0
KME1 072344Z 15011KT 36/15 A2998 RMK A01 T03610146  RH  028%=      5-min Rain = 0
KME1 072345Z 14011KT 36/15 A2998 RMK A01 T03600146  RH  028%=      5-min Rain = 0
KME1 072346Z 14009KT 36/15 A2998 RMK A01 T03600147  RH  028%=      5-min Rain = 0
KME1 072347Z 15014KT 36/15 A2998 RMK A01 T03620146  RH  028%=      5-min Rain = 0
KME1 072348Z 14014KT 36/14 A2998 RMK A01 T03610143  RH  027%=      5-min Rain = 0
KME1 072349Z 15012KT 36/14 A2998 RMK A01 T03590142  RH  027%=      5-min Rain = 0
KME1 072350Z 14011KT 36/14 A2998 RMK A01 T03580142  RH  028%=      5-min Rain = 0
KME1 072351Z 14012G17KT 36/14 A2998 RMK A01 T03580142  RH  028%=      5-min Rain = 0
KME1 072352Z 14013KT 36/14 A2998 RMK A01 T03590142  RH  027%=      5-min Rain = 0
KME1 072353Z 13010KT 36/14 A2998 RMK A01 T03590141  RH  027%=      5-min Rain = 0
KME1 072354Z 13011KT 36/14 A2998 RMK A01 T03600141  RH  027%=      5-min Rain = 0
KME1 072355Z 12011KT 36/14 A2998 RMK A01 T03590141  RH  027%=      5-min Rain = 0
KME1 072356Z 13010KT 36/14 A2998 RMK A01 T03590141  RH  027%=      5-min Rain = 0
KME1 072357Z 16009KT 36/14 A2998 RMK A01 T03590141  RH  027%=      5-min Rain = 0
KME1 072358Z 16011G17KT 36/14 A2998 RMK A01 T03600141  RH  027%=      5-min Rain = 0
KME1 072359Z 16013G18KT 36/14 A2998 RMK A01 T03600141  RH  027%=      5-min Rain = 0
KME1 080000Z 16011KT 36/14 A2998 RMK A01 T03590140  RH  027%=      5-min Rain = 0
KME1 080001Z 15013KT 36/14 A2998 RMK A01 T03590140  RH  027%=      5-min Rain = 0
KME1 080002Z 15012KT 36/14 A2998 RMK A01 T03580139  RH  027%=      5-min Rain = 0
KME1 080003Z 17011KT 36/14 A2998 RMK A01 T03580141  RH  027%=      5-min Rain = 0
KME1 080004Z 16012KT 36/14 A2998 RMK A01 T03570142  RH  028%=      5-min Rain = 0
KME1 080005Z 17009KT 36/14 A2998 RMK A01 T03570142  RH  028%=      5-min Rain = 0
KME1 080006Z 16010KT 36/14 A2998 RMK A01 T03570143  RH  028%=      5-min Rain = 0
KME1 080007Z 16012KT 36/14 A2998 RMK A01 T03570142  RH  028%=      5-min Rain = 0
KME1 080008Z 17010KT 36/14 A2998 RMK A01 T03580142  RH  028%=      5-min Rain = 0
KME1 080009Z 16010KT 36/14 A2999 RMK A01 T03570142  RH  028%=      5-min Rain = 0
KME1 080010Z 16009KT 36/14 A2999 RMK A01 T03580141  RH  027%=      5-min Rain = 0
KME1 080011Z 16010KT 36/14 A2999 RMK A01 T03570142  RH  028%=      5-min Rain = 0
KME1 080012Z 17010KT 36/14 A2999 RMK A01 T03570142  RH  028%=      5-min Rain = 0
KME1 080013Z 17008KT 36/14 A2999 RMK A01 T03570142  RH  028%=      5-min Rain = 0
KME1 080014Z 17012KT 36/14 A2999 RMK A01 T03570141  RH  028%=      5-min Rain = 0
KME1 080015Z 16011KT 36/14 A2999 RMK A01 T03570137  RH  027%=      5-min Rain = 0
KME1 080016Z 16007KT 36/14 A2999 RMK A01 T03560135  RH  027%=      5-min Rain = 0
KME1 080017Z 16008KT 36/14 A2999 RMK A01 T03560135  RH  027%=      5-min Rain = 0
KME1 080018Z 16007KT 36/14 A2999 RMK A01 T03560137  RH  027%=      5-min Rain = 0
KME1 080019Z 16007KT 36/14 A2999 RMK A01 T03550139  RH  027%=      5-min Rain = 0
KME1 080020Z 17006KT 36/14 A2999 RMK A01 T03560140  RH  027%=      5-min Rain = 0
KME1 080021Z 16008KT 36/14 A2999 RMK A01 T03570141  RH  027%=      5-min Rain = 0
KME1 080022Z 15008KT 36/15 A2999 RMK A01 T03580145  RH  028%=      5-min Rain = 0
KME1 080023Z 16009KT 36/15 A2999 RMK A01 T03570147  RH  028%=      5-min Rain = 0
KME1 080024Z 16009KT 36/15 A2999 RMK A01 T03570146  RH  029%=      5-min Rain = 0
KME1 080025Z 17009G15KT 36/15 A2999 RMK A01 T03560146  RH  029%=      5-min Rain = 0
KME1 080026Z 17014KT 36/14 A2999 RMK A01 T03560144  RH  028%=      5-min Rain = 0
KME1 080027Z 15013KT 35/14 A2999 RMK A01 T03540144  RH  028%=      5-min Rain = 0
KME1 080028Z 15008KT 35/15 A2999 RMK A01 T03530145  RH  029%=      5-min Rain = 0
KME1 080029Z 16011KT 35/15 A2999 RMK A01 T03530146  RH  029%=      5-min Rain = 0
KME1 080030Z 16011G18KT 35/15 A2999 RMK A01 T03530147  RH  029%=      5-min Rain = 0
KME1 080031Z 17012KT 35/15 A2999 RMK A01 T03520147  RH  029%=      5-min Rain = 0
KME1 080032Z 17010KT 35/15 A2999 RMK A01 T03510148  RH  030%=      5-min Rain = 0
KME1 080033Z 17011KT 35/15 A2999 RMK A01 T03510149  RH  030%=      5-min Rain = 0
KME1 080034Z 17009KT 35/15 A30 RMK A01 T03510149  RH  030%=      5-min Rain = 0
KME1 080035Z 16009KT 35/15 A30 RMK A01 T03510149  RH  030%=      5-min Rain = 0
KME1 080036Z 16010KT 35/15 A30 RMK A01 T03510150  RH  030%=      5-min Rain = 0
KME1 080037Z 16010KT 35/15 A30 RMK A01 T03510150  RH  030%=      5-min Rain = 0
KME1 080038Z 16011KT 35/15 A30 RMK A01 T03510150  RH  030%=      5-min Rain = 0
KME1 080039Z 15011KT 35/15 A30 RMK A01 T03510150  RH  030%=      5-min Rain = 0
KME1 080040Z 15012KT 35/15 A30 RMK A01 T03500150  RH  030%=      5-min Rain = 0
KME1 080041Z 17013KT 35/15 A30 RMK A01 T03500149  RH  030%=      5-min Rain = 0
KME1 080042Z 16009KT 35/15 A30 RMK A01 T03490147  RH  030%=      5-min Rain = 0
KME1 080043Z 16008KT 35/15 A30 RMK A01 T03490148  RH  030%=      5-min Rain = 0
KME1 080044Z 15011KT 35/15 A30 RMK A01 T03490147  RH  030%=      5-min Rain = 0
KME1 080045Z 17010KT 35/15 A30 RMK A01 T03480146  RH  030%=      5-min Rain = 0
KME1 080046Z 17010KT 35/15 A30 RMK A01 T03480146  RH  030%=      5-min Rain = 0
KME1 080047Z 17011KT 35/15 A30 RMK A01 T03480147  RH  030%=      5-min Rain = 0
KME1 080048Z 17011KT 35/15 A30 RMK A01 T03470148  RH  030%=      5-min Rain = 0
KME1 080049Z 17012G18KT 35/15 A30 RMK A01 T03460148  RH  031%=      5-min Rain = 0
KME1 080050Z 17011KT 35/15 A30 RMK A01 T03450149  RH  031%=      5-min Rain = 0
KME1 080051Z 15008KT 35/15 A30 RMK A01 T03450149  RH  031%=      5-min Rain = 0
KME1 080052Z 15010KT 34/15 A30 RMK A01 T03440149  RH  031%=      5-min Rain = 0
KME1 080053Z 16008KT 34/15 A30 RMK A01 T03440150  RH  031%=      5-min Rain = 0
KME1 080054Z 15008KT 34/15 A30 RMK A01 T03430150  RH  031%=      5-min Rain = 0
KME1 080055Z 14011G18KT 34/15 A30 RMK A01 T03430150  RH  032%=      5-min Rain = 0
KME1 080056Z 15011KT 34/15 A30 RMK A01 T03420149  RH  031%=      5-min Rain = 0
KME1 080057Z 14013KT 34/15 A30 RMK A01 T03420149  RH  032%=      5-min Rain = 0
KME1 080058Z 15008KT 34/15 A30 RMK A01 T03410149  RH  032%=      5-min Rain = 0
KME1 080059Z 16009KT 34/15 A30 RMK A01 T03410149  RH  032%=      5-min Rain = 0
KME1 080100Z 16011KT 34/15 A30 RMK A01 T03400149  RH  032%=      5-min Rain = 0
KME1 080101Z 16010KT 34/15 A30 RMK A01 T03400150  RH  032%=      5-min Rain = 0
KME1 080102Z 15006KT 34/15 A3001 RMK A01 T03400150  RH  032%=      5-min Rain = 0
KME1 080103Z 16007KT 34/15 A3001 RMK A01 T03390150  RH  032%=      5-min Rain = 0
KME1 080104Z 14010KT 34/15 A3001 RMK A01 T03390150  RH  032%=      5-min Rain = 0
KME1 080105Z 15011KT 34/15 A3001 RMK A01 T03380151  RH  033%=      5-min Rain = 0
KME1 080106Z 15010KT 34/15 A3001 RMK A01 T03390152  RH  033%=      5-min Rain = 0
KME1 080107Z 15009KT 34/15 A3001 RMK A01 T03390152  RH  033%=      5-min Rain = 0
KME1 080108Z 16011KT 34/15 A3001 RMK A01 T03380152  RH  033%=      5-min Rain = 0
KME1 080109Z 16012KT 34/15 A3001 RMK A01 T03380153  RH  033%=      5-min Rain = 0
KME1 080110Z 16009KT 34/15 A3001 RMK A01 T03380153  RH  033%=      5-min Rain = 0
KME1 080111Z 16009KT 34/15 A3001 RMK A01 T03370153  RH  033%=      5-min Rain = 0
KME1 080112Z 15008KT 34/15 A3001 RMK A01 T03370153  RH  033%=      5-min Rain = 0
KME1 080113Z 14009KT 34/15 A3001 RMK A01 T03360153  RH  033%=      5-min Rain = 0
KME1 080114Z 14008KT 34/15 A3001 RMK A01 T03360153  RH  033%=      5-min Rain = 0
KME1 080115Z 15008KT 34/15 A3001 RMK A01 T03360153  RH  033%=      5-min Rain = 0
KME1 080116Z 15006KT 34/15 A3001 RMK A01 T03350153  RH  034%=      5-min Rain = 0
KME1 080117Z 15009KT 33/15 A3001 RMK A01 T03340152  RH  034%=      5-min Rain = 0
KME1 080118Z 15009KT 33/15 A3001 RMK A01 T03340153  RH  034%=      5-min Rain = 0
KME1 080119Z 14011KT 33/15 A3001 RMK A01 T03330152  RH  034%=      5-min Rain = 0
KME1 080120Z 16009KT 33/15 A3001 RMK A01 T03330152  RH  034%=      5-min Rain = 0
KME1 080121Z 16009KT 33/15 A3001 RMK A01 T03330152  RH  034%=      5-min Rain = 0
KME1 080122Z 16011KT 33/15 A3001 RMK A01 T03330153  RH  034%=      5-min Rain = 0
KME1 080123Z 15009KT 33/15 A3001 RMK A01 T03320153  RH  034%=      5-min Rain = 0
KME1 080124Z 16009KT 33/15 A3001 RMK A01 T03320153  RH  034%=      5-min Rain = 0
KME1 080125Z 15010KT 33/15 A3002 RMK A01 T03320153  RH  034%=      5-min Rain = 0
KME1 080126Z 15008KT 33/15 A3002 RMK A01 T03310152  RH  034%=      5-min Rain = 0
KME1 080127Z 16009KT 33/15 A3002 RMK A01 T03310152  RH  034%=      5-min Rain = 0
KME1 080128Z 15011KT 33/15 A3001 RMK A01 T03310153  RH  034%=      5-min Rain = 0
KME1 080129Z 15010KT 33/15 A3002 RMK A01 T03310152  RH  034%=      5-min Rain = 0
KME1 080130Z 15011KT 33/15 A3002 RMK A01 T03310152  RH  034%=      5-min Rain = 0
KME1 080131Z 15010KT 33/15 A3002 RMK A01 T03310152  RH  034%=      5-min Rain = 0
KME1 080132Z 16010KT 33/15 A3002 RMK A01 T03300152  RH  034%=      5-min Rain = 0
KME1 080133Z 15009KT 33/15 A3002 RMK A01 T03300152  RH  034%=      5-min Rain = 0
KME1 080134Z 15010KT 33/15 A3002 RMK A01 T03300152  RH  034%=      5-min Rain = 0
KME1 080135Z 16012KT 33/15 A3002 RMK A01 T03300151  RH  034%=      5-min Rain = 0
KME1 080136Z 14010KT 33/15 A3002 RMK A01 T03300151  RH  034%=      5-min Rain = 0
KME1 080137Z 15009KT 33/15 A3002 RMK A01 T03290151  RH  034%=      5-min Rain = 0
KME1 080138Z 14011KT 33/15 A3002 RMK A01 T03290151  RH  034%=      5-min Rain = 0
KME1 080139Z 15010KT 33/15 A3002 RMK A01 T03290151  RH  034%=      5-min Rain = 0
KME1 080140Z 15009KT 33/15 A3002 RMK A01 T03290150  RH  034%=      5-min Rain = 0
KME1 080141Z 14011KT 33/15 A3002 RMK A01 T03280150  RH  034%=      5-min Rain = 0
KME1 080142Z 15009KT 33/15 A3002 RMK A01 T03280150  RH  034%=      5-min Rain = 0
KME1 080143Z 15009KT 33/15 A3002 RMK A01 T03280150  RH  034%=      5-min Rain = 0
KME1 080144Z 15012KT 33/15 A3002 RMK A01 T03270150  RH  034%=      5-min Rain = 0
KME1 080145Z 15009KT 33/15 A3002 RMK A01 T03270150  RH  034%=      5-min Rain = 0
KME1 080146Z 16009KT 33/15 A3002 RMK A01 T03270150  RH  034%=      5-min Rain = 0
KME1 080147Z 15008KT 33/15 A3003 RMK A01 T03270150  RH  035%=      5-min Rain = 0
KME1 080148Z 15008KT 33/15 A3003 RMK A01 T03260150  RH  035%=      5-min Rain = 0
KME1 080149Z 15011KT 33/15 A3003 RMK A01 T03250149  RH  035%=      5-min Rain = 0
KME1 080150Z 15008KT 33/15 A3003 RMK A01 T03250149  RH  035%=      5-min Rain = 0
KME1 080151Z 16007KT 32/15 A3003 RMK A01 T03240149  RH  035%=      5-min Rain = 0
KME1 080152Z 16008KT 33/15 A3003 RMK A01 T03250150  RH  035%=      5-min Rain = 0
KME1 080153Z 16007KT 32/15 A3003 RMK A01 T03240150  RH  035%=      5-min Rain = 0
KME1 080154Z 16006KT 32/15 A3003 RMK A01 T03230149  RH  035%=      5-min Rain = 0
KME1 080155Z 16009KT 32/15 A3003 RMK A01 T03230149  RH  035%=      5-min Rain = 0
KME1 080156Z 16010KT 32/15 A3003 RMK A01 T03230149  RH  035%=      5-min Rain = 0
KME1 080157Z 15007KT 32/15 A3003 RMK A01 T03230149  RH  035%=      5-min Rain = 0
KME1 080158Z 15009KT 32/15 A3003 RMK A01 T03230149  RH  035%=      5-min Rain = 0
KME1 080159Z 16009KT 32/15 A3003 RMK A01 T03230149  RH  035%=      5-min Rain = 0
KME1 080200Z 15010KT 32/15 A3003 RMK A01 T03230148  RH  035%=      5-min Rain = 0
KME1 080201Z 15008KT 32/15 A3003 RMK A01 T03230148  RH  035%=      5-min Rain = 0
KME1 080202Z 15009KT 32/15 A3003 RMK A01 T03230148  RH  035%=      5-min Rain = 0
KME1 080203Z 16009KT 32/15 A3003 RMK A01 T03230148  RH  035%=      5-min Rain = 0
KME1 080204Z 16008KT 32/15 A3003 RMK A01 T03230148  RH  035%=      5-min Rain = 0
KME1 080205Z 15008KT 32/15 A3003 RMK A01 T03220148  RH  035%=      5-min Rain = 0
KME1 080206Z 16008KT 32/15 A3003 RMK A01 T03220148  RH  035%=      5-min Rain = 0
KME1 080207Z 16007KT 32/15 A3003 RMK A01 T03220148  RH  035%=      5-min Rain = 0
KME1 080208Z 15009KT 32/15 A3003 RMK A01 T03220148  RH  035%=      5-min Rain = 0
KME1 080209Z 16009KT 32/15 A3003 RMK A01 T03210148  RH  035%=      5-min Rain = 0
KME1 080210Z 16007KT 32/15 A3003 RMK A01 T03220148  RH  035%=      5-min Rain = 0
KME1 080211Z 15008KT 32/15 A3003 RMK A01 T03210148  RH  035%=      5-min Rain = 0
KME1 080212Z 16008G13KT 32/15 A3003 RMK A01 T03200148  RH  035%=      5-min Rain = 0
KME1 080213Z 17008KT 32/15 A3003 RMK A01 T03200148  RH  035%=      5-min Rain = 0
KME1 080214Z 16008KT 32/15 A3003 RMK A01 T03200148  RH  036%=      5-min Rain = 0
KME1 080215Z 16011KT 32/15 A3003 RMK A01 T03190148  RH  036%=      5-min Rain = 0
KME1 080216Z 16010KT 32/15 A3003 RMK A01 T03190148  RH  035%=      5-min Rain = 0
KME1 080217Z 17008KT 32/15 A3003 RMK A01 T03200148  RH  035%=      5-min Rain = 0
KME1 080218Z 16008KT 32/15 A3003 RMK A01 T03200148  RH  035%=      5-min Rain = 0
KME1 080219Z 16010KT 32/15 A3003 RMK A01 T03200148  RH  036%=      5-min Rain = 0
KME1 080220Z 16008KT 32/15 A3003 RMK A01 T03200148  RH  036%=      5-min Rain = 0
KME1 080221Z 16007KT 32/15 A3003 RMK A01 T03190148  RH  036%=      5-min Rain = 0
KME1 080222Z 16009KT 32/15 A3003 RMK A01 T03180148  RH  036%=      5-min Rain = 0
KME1 080223Z 16009KT 32/15 A3003 RMK A01 T03180148  RH  036%=      5-min Rain = 0
KME1 080224Z 16008KT 32/15 A3003 RMK A01 T03180148  RH  036%=      5-min Rain = 0
KME1 080225Z 16008KT 32/15 A3003 RMK A01 T03180148  RH  036%=      5-min Rain = 0
KME1 080226Z 16007KT 32/15 A3003 RMK A01 T03180148  RH  036%=      5-min Rain = 0
KME1 080227Z 16007KT 32/15 A3004 RMK A01 T03170149  RH  036%=      5-min Rain = 0
KME1 080228Z 16009KT 32/15 A3004 RMK A01 T03160149  RH  036%=      5-min Rain = 0
KME1 080229Z 17009KT 32/15 A3004 RMK A01 T03160149  RH  036%=      5-min Rain = 0
KME1 080230Z 15007KT 32/15 A3004 RMK A01 T03170149  RH  036%=      5-min Rain = 0
KME1 080231Z 16008KT 32/15 A3004 RMK A01 T03160149  RH  036%=      5-min Rain = 0
KME1 080232Z 15008KT 32/15 A3004 RMK A01 T03160149  RH  036%=      5-min Rain = 0
KME1 080233Z 16008KT 32/15 A3004 RMK A01 T03160149  RH  036%=      5-min Rain = 0
KME1 080234Z 16009KT 32/15 A3004 RMK A01 T03160149  RH  036%=      5-min Rain = 0
KME1 080235Z 16010KT 32/15 A3004 RMK A01 T03160149  RH  036%=      5-min Rain = 0
KME1 080236Z 16008KT 32/15 A3004 RMK A01 T03160149  RH  036%=      5-min Rain = 0
KME1 080237Z 17009KT 32/15 A3004 RMK A01 T03160149  RH  037%=      5-min Rain = 0
KME1 080238Z 16009KT 32/15 A3004 RMK A01 T03150149  RH  037%=      5-min Rain = 0
KME1 080239Z 16008KT 32/15 A3004 RMK A01 T03150149  RH  037%=      5-min Rain = 0
KME1 080240Z 16008KT 32/15 A3004 RMK A01 T03150150  RH  037%=      5-min Rain = 0
KME1 080241Z 16007KT 31/15 A3004 RMK A01 T03140149  RH  037%=      5-min Rain = 0
KME1 080242Z 15008KT 31/15 A3004 RMK A01 T03140149  RH  037%=      5-min Rain = 0
KME1 080243Z 16009KT 31/15 A3004 RMK A01 T03140149  RH  037%=      5-min Rain = 0
KME1 080244Z 16009KT 31/15 A3004 RMK A01 T03140149  RH  037%=      5-min Rain = 0
KME1 080245Z 16008KT 31/15 A3004 RMK A01 T03140150  RH  037%=      5-min Rain = 0
KME1 080246Z 16007KT 31/15 A3004 RMK A01 T03130150  RH  037%=      5-min Rain = 0
KME1 080247Z 15008KT 31/15 A3005 RMK A01 T03120150  RH  037%=      5-min Rain = 0
KME1 080248Z 16008KT 31/15 A3005 RMK A01 T03120150  RH  037%=      5-min Rain = 0
KME1 080249Z 16009KT 31/15 A3005 RMK A01 T03120150  RH  038%=      5-min Rain = 0
KME1 080250Z 16010KT 31/15 A3005 RMK A01 T03120151  RH  038%=      5-min Rain = 0
KME1 080251Z 16008KT 31/15 A3005 RMK A01 T03120150  RH  038%=      5-min Rain = 0
KME1 080252Z 16006KT 31/15 A3005 RMK A01 T03120151  RH  038%=      5-min Rain = 0
KME1 080253Z 16008KT 31/15 A3005 RMK A01 T03120151  RH  038%=      5-min Rain = 0
KME1 080254Z 16009KT 31/15 A3005 RMK A01 T03110151  RH  038%=      5-min Rain = 0
KME1 080255Z 16008KT 31/15 A3005 RMK A01 T03110151  RH  038%=      5-min Rain = 0
KME1 080256Z 16009KT 31/15 A3005 RMK A01 T03110151  RH  038%=      5-min Rain = 0
KME1 080257Z 15009KT 31/15 A3005 RMK A01 T03110151  RH  038%=      5-min Rain = 0
KME1 080258Z 16008KT 31/15 A3005 RMK A01 T03110151  RH  038%=      5-min Rain = 0
KME1 080259Z 16008KT 31/15 A3005 RMK A01 T03110151  RH  038%=      5-min Rain = 0
KME1 080300Z 16008KT 31/15 A3005 RMK A01 T03110152  RH  038%=      5-min Rain = 0
KME1 080301Z 16008KT 31/15 A3005 RMK A01 T03110152  RH  038%=      5-min Rain = 0
KME1 080302Z 16006KT 31/15 A3005 RMK A01 T03100152  RH  038%=      5-min Rain = 0
KME1 080303Z 16008KT 31/15 A3005 RMK A01 T03100152  RH  038%=      5-min Rain = 0
KME1 080304Z 16009KT 31/15 A3005 RMK A01 T03090152  RH  039%=      5-min Rain = 0
KME1 080305Z 16008KT 31/15 A3005 RMK A01 T03090152  RH  039%=      5-min Rain = 0
KME1 080306Z 17010KT 31/15 A3005 RMK A01 T03090152  RH  039%=      5-min Rain = 0
KME1 080307Z 16009KT 31/15 A3005 RMK A01 T03090152  RH  039%=      5-min Rain = 0
KME1 080308Z 16011KT 31/15 A3005 RMK A01 T03090152  RH  039%=      5-min Rain = 0
KME1 080309Z 16009KT 31/15 A3005 RMK A01 T03090152  RH  039%=      5-min Rain = 0
KME1 080310Z 16009KT 31/15 A3005 RMK A01 T03090152  RH  039%=      5-min Rain = 0
KME1 080311Z 16009KT 31/15 A3005 RMK A01 T03090153  RH  039%=      5-min Rain = 0
KME1 080312Z 16007KT 31/15 A3005 RMK A01 T03090153  RH  039%=      5-min Rain = 0
KME1 080313Z 16009KT 31/15 A3005 RMK A01 T03090153  RH  039%=      5-min Rain = 0
KME1 080314Z 16009KT 31/15 A3005 RMK A01 T03080153  RH  039%=      5-min Rain = 0
KME1 080315Z 16010KT 31/15 A3006 RMK A01 T03080153  RH  039%=      5-min Rain = 0
KME1 080316Z 16009KT 31/15 A3006 RMK A01 T03080153  RH  039%=      5-min Rain = 0
KME1 080317Z 16010KT 31/15 A3006 RMK A01 T03080153  RH  039%=      5-min Rain = 0
KME1 080318Z 16010KT 31/15 A3006 RMK A01 T03080154  RH  039%=      5-min Rain = 0
KME1 080319Z 16010KT 31/15 A3006 RMK A01 T03080153  RH  039%=      5-min Rain = 0
KME1 080320Z 16008KT 31/15 A3006 RMK A01 T03080154  RH  039%=      5-min Rain = 0
KME1 080321Z 16008KT 31/15 A3006 RMK A01 T03080154  RH  039%=      5-min Rain = 0
KME1 080322Z 16010KT 31/15 A3006 RMK A01 T03080154  RH  039%=      5-min Rain = 0
KME1 080323Z 16009KT 31/16 A3006 RMK A01 T03080155  RH  040%=      5-min Rain = 0
KME1 080324Z 16007KT 31/16 A3006 RMK A01 T03080155  RH  040%=      5-min Rain = 0
KME1 080325Z 16008KT 31/16 A3006 RMK A01 T03070155  RH  040%=      5-min Rain = 0
KME1 080326Z 17008KT 31/15 A3006 RMK A01 T03060154  RH  040%=      5-min Rain = 0
KME1 080327Z 16008KT 31/16 A3006 RMK A01 T03060155  RH  040%=      5-min Rain = 0
KME1 080328Z 16010KT 31/16 A3006 RMK A01 T03060155  RH  040%=      5-min Rain = 0
KME1 080329Z 16009KT 31/16 A3006 RMK A01 T03060155  RH  040%=      5-min Rain = 0
KME1 080330Z 16009KT 31/16 A3006 RMK A01 T03060155  RH  040%=      5-min Rain = 0
KME1 080331Z 16010KT 31/16 A3006 RMK A01 T03060155  RH  040%=      5-min Rain = 0
KME1 080332Z 16009KT 31/16 A3006 RMK A01 T03060155  RH  040%=      5-min Rain = 0
KME1 080333Z 16010KT 31/16 A3006 RMK A01 T03060156  RH  040%=      5-min Rain = 0
KME1 080334Z 16010KT 31/16 A3006 RMK A01 T03060156  RH  040%=      5-min Rain = 0
KME1 080335Z 16011KT 31/16 A3006 RMK A01 T03060156  RH  040%=      5-min Rain = 0
KME1 080336Z 16011KT 31/16 A3006 RMK A01 T03060156  RH  040%=      5-min Rain = 0
KME1 080337Z 16010KT 31/16 A3006 RMK A01 T03060156  RH  040%=      5-min Rain = 0
KME1 080338Z 16008KT 31/16 A3006 RMK A01 T03060156  RH  040%=      5-min Rain = 0
KME1 080339Z 17009KT 31/16 A3006 RMK A01 T03060156  RH  040%=      5-min Rain = 0
KME1 080340Z 16010KT 31/16 A3006 RMK A01 T03050156  RH  041%=      5-min Rain = 0
KME1 080341Z 16011KT 31/16 A3006 RMK A01 T03050156  RH  041%=      5-min Rain = 0
KME1 080342Z 16009KT 31/16 A3006 RMK A01 T03050156  RH  041%=      5-min Rain = 0
KME1 080343Z 16008KT 31/16 A3006 RMK A01 T03050156  RH  041%=      5-min Rain = 0
KME1 080344Z 16011KT 31/16 A3006 RMK A01 T03050156  RH  041%=      5-min Rain = 0
KME1 080345Z 16008KT 30/16 A3006 RMK A01 T03040156  RH  041%=      5-min Rain = 0
KME1 080346Z 16008KT 30/16 A3006 RMK A01 T03040157  RH  041%=      5-min Rain = 0
KME1 080347Z 16009KT 30/16 A3006 RMK A01 T03040157  RH  041%=      5-min Rain = 0
KME1 080348Z 16010KT 30/16 A3006 RMK A01 T03040156  RH  041%=      5-min Rain = 0
KME1 080349Z 16010KT 30/16 A3006 RMK A01 T03030156  RH  041%=      5-min Rain = 0
KME1 080350Z 16009KT 30/16 A3006 RMK A01 T03030156  RH  041%=      5-min Rain = 0
KME1 080351Z 17010KT 30/16 A3006 RMK A01 T03030157  RH  041%=      5-min Rain = 0
KME1 080352Z 16008KT 30/16 A3006 RMK A01 T03030157  RH  041%=      5-min Rain = 0
KME1 080353Z 16010KT 30/16 A3006 RMK A01 T03030157  RH  041%=      5-min Rain = 0
KME1 080354Z 16007KT 30/16 A3007 RMK A01 T03030157  RH  041%=      5-min Rain = 0
KME1 080355Z 16008KT 30/16 A3007 RMK A01 T03020157  RH  041%=      5-min Rain = 0
KME1 080356Z 17009KT 30/16 A3007 RMK A01 T03020157  RH  042%=      5-min Rain = 0
KME1 080357Z 16008KT 30/16 A3007 RMK A01 T03020157  RH  042%=      5-min Rain = 0
KME1 080358Z 16010KT 30/16 A3007 RMK A01 T03020157  RH  042%=      5-min Rain = 0
KME1 080359Z 16008KT 30/16 A3007 RMK A01 T03010157  RH  042%=      5-min Rain = 0
KME1 080400Z 16007KT 30/16 A3007 RMK A01 T03010157  RH  042%=      5-min Rain = 0
KME1 080401Z 16007KT 30/16 A3007 RMK A01 T03010157  RH  042%=      5-min Rain = 0
KME1 080402Z 16008KT 30/16 A3007 RMK A01 T03000158  RH  042%=      5-min Rain = 0
KME1 080403Z 16011KT 30/16 A3007 RMK A01 T03000158  RH  042%=      5-min Rain = 0
KME1 080404Z 16011KT 30/16 A3007 RMK A01 T03000158  RH  042%=      5-min Rain = 0
KME1 080405Z 16010KT 30/16 A3007 RMK A01 T03010158  RH  042%=      5-min Rain = 0
KME1 080406Z 16009KT 30/16 A3007 RMK A01 T03010158  RH  042%=      5-min Rain = 0
KME1 080407Z 17011KT 30/16 A3007 RMK A01 T03020159  RH  042%=      5-min Rain = 0
KME1 080408Z 16010G15KT 30/16 A3007 RMK A01 T03010158  RH  042%=      5-min Rain = 0
KME1 080409Z 17013KT 30/16 A3007 RMK A01 T03010159  RH  042%=      5-min Rain = 0
KME1 080410Z 16011KT 30/16 A3007 RMK A01 T03010159  RH  042%=      5-min Rain = 0
KME1 080411Z 16010KT 30/16 A3007 RMK A01 T03020159  RH  042%=      5-min Rain = 0
KME1 080412Z 16009KT 30/16 A3007 RMK A01 T03020159  RH  042%=      5-min Rain = 0
KME1 080413Z 16011KT 30/16 A3007 RMK A01 T03010159  RH  042%=      5-min Rain = 0
KME1 080414Z 16010KT 30/16 A3007 RMK A01 T03010158  RH  042%=      5-min Rain = 0
KME1 080415Z 16009KT 30/16 A3007 RMK A01 T03010159  RH  042%=      5-min Rain = 0
KME1 080416Z 16010KT 30/16 A3007 RMK A01 T03010159  RH  042%=      5-min Rain = 0
KME1 080417Z 16009KT 30/16 A3007 RMK A01 T03000159  RH  042%=      5-min Rain = 0
KME1 080418Z 16009KT 30/16 A3007 RMK A01 T03000158  RH  042%=      5-min Rain = 0
KME1 080419Z 17010KT 30/16 A3007 RMK A01 T03000159  RH  043%=      5-min Rain = 0
KME1 080420Z 16009KT 30/16 A3007 RMK A01 T02990158  RH  043%=      5-min Rain = 0
KME1 080421Z 16010KT 30/16 A3007 RMK A01 T03000159  RH  043%=      5-min Rain = 0
KME1 080422Z 16009KT 30/16 A3007 RMK A01 T02990158  RH  043%=      5-min Rain = 0
KME1 080423Z 16011KT 30/16 A3007 RMK A01 T02990159  RH  043%=      5-min Rain = 0
KME1 080424Z 16009KT 30/16 A3007 RMK A01 T02990159  RH  043%=      5-min Rain = 0
KME1 080425Z 16007KT 30/16 A3007 RMK A01 T02980159  RH  043%=      5-min Rain = 0
KME1 080426Z 16008KT 30/16 A3007 RMK A01 T02980159  RH  043%=      5-min Rain = 0
KME1 080427Z 17008KT 30/16 A3007 RMK A01 T02970158  RH  043%=      5-min Rain = 0
KME1 080428Z 16007KT 30/16 A3007 RMK A01 T02970158  RH  043%=      5-min Rain = 0
KME1 080429Z 16009KT 30/16 A3007 RMK A01 T02970159  RH  043%=      5-min Rain = 0
KME1 080430Z 16009KT 30/16 A3007 RMK A01 T02970158  RH  043%=      5-min Rain = 0
KME1 080431Z 17008KT 30/16 A3007 RMK A01 T02960158  RH  043%=      5-min Rain = 0
KME1 080432Z 16009KT 30/16 A3007 RMK A01 T02970158  RH  043%=      5-min Rain = 0
KME1 080433Z 16008KT 30/16 A3007 RMK A01 T02970158  RH  043%=      5-min Rain = 0
KME1 080434Z 17008KT 30/16 A3007 RMK A01 T02970158  RH  043%=      5-min Rain = 0
KME1 080435Z 16006KT 30/16 A3008 RMK A01 T02970158  RH  043%=      5-min Rain = 0
KME1 080436Z 17007KT 30/16 A3008 RMK A01 T02960158  RH  043%=      5-min Rain = 0
KME1 080437Z 16010KT 30/16 A3008 RMK A01 T02950158  RH  043%=      5-min Rain = 0
KME1 080438Z 17009KT 30/16 A3008 RMK A01 T02950158  RH  043%=      5-min Rain = 0
KME1 080439Z 16009KT 30/16 A3008 RMK A01 T02960158  RH  043%=      5-min Rain = 0
KME1 080440Z 17007KT 30/16 A3008 RMK A01 T02960157  RH  043%=      5-min Rain = 0
KME1 080441Z 17008KT 30/16 A3008 RMK A01 T02960158  RH  043%=      5-min Rain = 0
KME1 080442Z 17007KT 30/16 A3008 RMK A01 T02960158  RH  043%=      5-min Rain = 0
KME1 080443Z 17008KT 30/16 A3008 RMK A01 T02960158  RH  043%=      5-min Rain = 0
KME1 080444Z 18007KT 30/16 A3008 RMK A01 T02950157  RH  043%=      5-min Rain = 0
KME1 080445Z 16007KT 29/16 A3008 RMK A01 T02940157  RH  043%=      5-min Rain = 0
KME1 080446Z 17007KT 29/16 A3008 RMK A01 T02940157  RH  043%=      5-min Rain = 0
KME1 080447Z 17007KT 29/16 A3008 RMK A01 T02940157  RH  044%=      5-min Rain = 0
KME1 080448Z 16007KT 29/16 A3008 RMK A01 T02940157  RH  044%=      5-min Rain = 0
KME1 080449Z 16008KT 29/16 A3008 RMK A01 T02940157  RH  044%=      5-min Rain = 0
KME1 080450Z 17008KT 29/16 A3008 RMK A01 T02940157  RH  044%=      5-min Rain = 0
KME1 080451Z 16008KT 29/16 A3008 RMK A01 T02930157  RH  044%=      5-min Rain = 0
KME1 080452Z 17009KT 29/16 A3008 RMK A01 T02930157  RH  044%=      5-min Rain = 0
KME1 080453Z 16007KT 29/16 A3008 RMK A01 T02930157  RH  044%=      5-min Rain = 0
KME1 080454Z 16008KT 29/16 A3008 RMK A01 T02930157  RH  044%=      5-min Rain = 0
KME1 080455Z 16007KT 29/16 A3008 RMK A01 T02930157  RH  044%=      5-min Rain = 0
KME1 080456Z 16008KT 29/16 A3008 RMK A01 T02930157  RH  044%=      5-min Rain = 0
KME1 080457Z 17006KT 29/16 A3008 RMK A01 T02920156  RH  044%=      5-min Rain = 0
KME1 080458Z 17007KT 29/16 A3008 RMK A01 T02920156  RH  044%=      5-min Rain = 0
KME1 080459Z 17007KT 29/16 A3008 RMK A01 T02920156  RH  044%=      5-min Rain = 0

Page generated in 0.0708 seconds.